HAZ765 NZAA-ZSPD
Flight info
| Callsign | HAZ765 |
|---|---|
| Flight time | N/A |
| Altitude | 32000 |
| Route | BELR2P DUGAN A597 UNZ G339 AGIKA Z41 POTET Y592 ONIKU A593 DUMET DUM93A |
| Aircraft | B77W/H-SDE1E2E3FGHIJ2J3J4J5M1RWXY/LB1D1 |
Departure
| Time | N/A |
|---|---|
| Airport | Auckland International Airport (NZAA) |
Arrival
| Time | 2026-05-04 04:20 |
|---|---|
| Airport | Shanghai Pudong International Airport (ZSPD) |
| Time | Latitude | Longitude | Altitude | Speed | Heading |
|---|---|---|---|---|---|
| 2026-05-03 20:15 | -13.73439 | 162.06387 | 31886 ft | 510 kts | 331° |
| 2026-05-03 20:15 | -13.66915 | 162.03252 | 31885 ft | 511 kts | 331° |
| 2026-05-03 20:16 | -13.60341 | 162.00096 | 31876 ft | 509 kts | 331° |
| 2026-05-03 20:16 | -13.53706 | 161.96912 | 31880 ft | 510 kts | 332° |
| 2026-05-03 20:17 | -13.47152 | 161.93770 | 31875 ft | 507 kts | 332° |
| 2026-05-03 20:17 | -13.40623 | 161.90639 | 31876 ft | 508 kts | 332° |
| 2026-05-03 20:18 | -13.34059 | 161.87495 | 31873 ft | 509 kts | 332° |
| 2026-05-03 20:18 | -13.27532 | 161.84372 | 31884 ft | 508 kts | 332° |
| 2026-05-03 20:19 | -13.21003 | 161.81249 | 31889 ft | 507 kts | 332° |
| 2026-05-03 20:19 | -13.14515 | 161.78146 | 31890 ft | 507 kts | 332° |
| 2026-05-03 20:20 | -13.07966 | 161.75017 | 31892 ft | 506 kts | 332° |
| 2026-05-03 20:20 | -13.01425 | 161.71893 | 31889 ft | 505 kts | 332° |
| 2026-05-03 20:21 | -12.95012 | 161.68832 | 31887 ft | 503 kts | 332° |
| 2026-05-03 20:21 | -12.88519 | 161.65735 | 31886 ft | 504 kts | 332° |
| 2026-05-03 20:22 | -12.82169 | 161.62707 | 31885 ft | 504 kts | 332° |
| 2026-05-03 20:22 | -12.75692 | 161.59622 | 31886 ft | 504 kts | 332° |
| 2026-05-03 20:23 | -12.69185 | 161.56523 | 31885 ft | 504 kts | 332° |
| 2026-05-03 20:23 | -12.62651 | 161.53415 | 31885 ft | 502 kts | 332° |
| 2026-05-03 20:24 | -12.56224 | 161.50357 | 31887 ft | 502 kts | 332° |
| 2026-05-03 20:24 | -12.49674 | 161.47243 | 31884 ft | 502 kts | 332° |
| 2026-05-03 20:25 | -12.43244 | 161.44188 | 31886 ft | 501 kts | 332° |
| 2026-05-03 20:25 | -12.36868 | 161.41161 | 31885 ft | 501 kts | 332° |
| 2026-05-03 20:26 | -12.30423 | 161.38101 | 31886 ft | 501 kts | 332° |
| 2026-05-03 20:26 | -12.24009 | 161.35059 | 31886 ft | 501 kts | 332° |
| 2026-05-03 20:27 | -12.17642 | 161.32040 | 31889 ft | 500 kts | 332° |
| 2026-05-03 20:27 | -12.11243 | 161.29009 | 31881 ft | 500 kts | 332° |
| 2026-05-03 20:28 | -12.04814 | 161.25964 | 31874 ft | 499 kts | 332° |
| 2026-05-03 20:28 | -11.98430 | 161.22943 | 31871 ft | 499 kts | 332° |
| 2026-05-03 20:29 | -11.92018 | 161.19910 | 31872 ft | 500 kts | 332° |
| 2026-05-03 20:29 | -11.85630 | 161.16888 | 31868 ft | 500 kts | 332° |
| 2026-05-03 20:30 | -11.79280 | 161.13887 | 31868 ft | 500 kts | 332° |
| 2026-05-03 20:30 | -11.72916 | 161.10881 | 31869 ft | 499 kts | 332° |
| 2026-05-03 20:31 | -11.66550 | 161.07877 | 31871 ft | 501 kts | 332° |
| 2026-05-03 20:31 | -11.60123 | 161.04842 | 31881 ft | 510 kts | 332° |
| 2026-05-03 20:32 | -11.53634 | 161.01782 | 31889 ft | 507 kts | 332° |
| 2026-05-03 20:32 | -11.47071 | 160.98689 | 31890 ft | 508 kts | 332° |
| 2026-05-03 20:33 | -11.40597 | 160.95639 | 31889 ft | 508 kts | 332° |
| 2026-05-03 20:33 | -11.34058 | 160.92560 | 31889 ft | 507 kts | 332° |
| 2026-05-03 20:34 | -11.27559 | 160.89500 | 31889 ft | 507 kts | 332° |
| 2026-05-03 20:34 | -11.21021 | 160.86426 | 31889 ft | 507 kts | 332° |
| 2026-05-03 20:35 | -11.14552 | 160.83383 | 31889 ft | 507 kts | 332° |
| 2026-05-03 20:35 | -11.08041 | 160.80324 | 31889 ft | 506 kts | 332° |
| 2026-05-03 20:36 | -11.01553 | 160.77277 | 31889 ft | 507 kts | 332° |
| 2026-05-03 20:36 | -10.95016 | 160.74206 | 31891 ft | 508 kts | 332° |
| 2026-05-03 20:37 | -10.88507 | 160.71161 | 31887 ft | 508 kts | 332° |
| 2026-05-03 20:37 | -10.82059 | 160.68146 | 31886 ft | 509 kts | 333° |
| 2026-05-03 20:38 | -10.75557 | 160.65108 | 31887 ft | 508 kts | 333° |
| 2026-05-03 20:38 | -10.69089 | 160.62087 | 31879 ft | 509 kts | 333° |
| 2026-05-03 20:39 | -10.62612 | 160.59062 | 31882 ft | 508 kts | 333° |
| 2026-05-03 20:39 | -10.56134 | 160.56039 | 31878 ft | 508 kts | 333° |
| 2026-05-03 20:40 | -10.49667 | 160.53023 | 31876 ft | 508 kts | 333° |
| 2026-05-03 20:40 | -10.43197 | 160.50006 | 31874 ft | 509 kts | 333° |
| 2026-05-03 20:41 | -10.36723 | 160.46988 | 31868 ft | 508 kts | 333° |
| 2026-05-03 20:41 | -10.30279 | 160.43988 | 31867 ft | 508 kts | 333° |
| 2026-05-03 20:42 | -10.23792 | 160.40970 | 31866 ft | 507 kts | 333° |
| 2026-05-03 20:42 | -10.17340 | 160.37968 | 31866 ft | 508 kts | 333° |
| 2026-05-03 20:43 | -10.10886 | 160.34969 | 31865 ft | 507 kts | 333° |
| 2026-05-03 20:43 | -10.04449 | 160.31978 | 31873 ft | 507 kts | 333° |
| 2026-05-03 20:44 | -9.98043 | 160.29002 | 31878 ft | 507 kts | 333° |
| 2026-05-03 20:44 | -9.91592 | 160.26009 | 31910 ft | 507 kts | 333° |
| 2026-05-03 20:45 | -9.85129 | 160.23009 | 31936 ft | 507 kts | 333° |
| 2026-05-03 20:45 | -9.78707 | 160.20030 | 31966 ft | 507 kts | 333° |
| 2026-05-03 20:46 | -9.72256 | 160.17038 | 31986 ft | 509 kts | 333° |
| 2026-05-03 20:46 | -9.65797 | 160.14046 | 31961 ft | 509 kts | 333° |
| 2026-05-03 20:47 | -9.59314 | 160.11041 | 31947 ft | 511 kts | 333° |
| 2026-05-03 20:47 | -9.52794 | 160.08023 | 31924 ft | 511 kts | 333° |
| 2026-05-03 20:48 | -9.46317 | 160.05025 | 31909 ft | 512 kts | 333° |
| 2026-05-03 20:48 | -9.40050 | 160.01558 | 31909 ft | 510 kts | 326° |
| 2026-05-03 20:49 | -9.34020 | 159.97739 | 31900 ft | 511 kts | 326° |
| 2026-05-03 20:49 | -9.27959 | 159.93901 | 31898 ft | 513 kts | 326° |
| 2026-05-03 20:50 | -9.21871 | 159.90050 | 31885 ft | 513 kts | 326° |
| 2026-05-03 20:50 | -9.15804 | 159.86217 | 31876 ft | 513 kts | 326° |
| 2026-05-03 20:51 | -9.09718 | 159.82373 | 31874 ft | 513 kts | 326° |
| 2026-05-03 20:51 | -9.03653 | 159.78545 | 31871 ft | 514 kts | 326° |
| 2026-05-03 20:52 | -8.97574 | 159.74710 | 31870 ft | 513 kts | 326° |
| 2026-05-03 20:52 | -8.91497 | 159.70879 | 31870 ft | 512 kts | 326° |
| 2026-05-03 20:53 | -8.85419 | 159.67047 | 31867 ft | 513 kts | 326° |
| 2026-05-03 20:53 | -8.79324 | 159.63207 | 31868 ft | 513 kts | 326° |
| 2026-05-03 20:54 | -8.73236 | 159.59372 | 31868 ft | 513 kts | 326° |
| 2026-05-03 20:54 | -8.64133 | 159.53642 | 31867 ft | 513 kts | 326° |
| 2026-05-03 20:55 | -8.58056 | 159.49818 | 31867 ft | 512 kts | 326° |
| 2026-05-03 20:55 | -8.51985 | 159.46001 | 31867 ft | 513 kts | 326° |
| 2026-05-03 20:56 | -8.45903 | 159.42177 | 31871 ft | 513 kts | 327° |
| 2026-05-03 20:56 | -8.39812 | 159.38350 | 31877 ft | 513 kts | 327° |
| 2026-05-03 20:57 | -8.33713 | 159.34520 | 31891 ft | 512 kts | 327° |
| 2026-05-03 20:57 | -8.27650 | 159.30713 | 31900 ft | 512 kts | 327° |
| 2026-05-03 20:58 | -8.21548 | 159.26883 | 31897 ft | 512 kts | 327° |
| 2026-05-03 20:58 | -8.15461 | 159.23064 | 31901 ft | 512 kts | 327° |
| 2026-05-03 20:59 | -8.09379 | 159.19249 | 31909 ft | 513 kts | 327° |
| 2026-05-03 20:59 | -8.03322 | 159.15451 | 31915 ft | 512 kts | 327° |
| 2026-05-03 21:00 | -7.98210 | 159.12247 | 31919 ft | 513 kts | 327° |
| 2026-05-03 21:00 | -7.91089 | 159.07783 | 31911 ft | 513 kts | 327° |
| 2026-05-03 21:01 | -7.85018 | 159.03981 | 31900 ft | 514 kts | 327° |
| 2026-05-03 21:01 | -7.78883 | 159.00139 | 31894 ft | 514 kts | 327° |
| 2026-05-03 21:02 | -7.72803 | 158.96333 | 31892 ft | 515 kts | 327° |
| 2026-05-03 21:02 | -7.66682 | 158.92503 | 31893 ft | 515 kts | 327° |
| 2026-05-03 21:03 | -7.60482 | 158.88625 | 31894 ft | 514 kts | 327° |
| 2026-05-03 21:03 | -7.54315 | 158.84767 | 31892 ft | 516 kts | 327° |
| 2026-05-03 21:04 | -7.48109 | 158.80888 | 31889 ft | 516 kts | 327° |
| 2026-05-03 21:04 | -7.41918 | 158.77019 | 31887 ft | 516 kts | 327° |
| 2026-05-03 21:05 | -7.35704 | 158.73137 | 31890 ft | 516 kts | 327° |
| 2026-05-03 21:05 | -7.29495 | 158.69260 | 31885 ft | 516 kts | 327° |
| 2026-05-03 21:06 | -7.23281 | 158.65379 | 31892 ft | 517 kts | 327° |
| 2026-05-03 21:06 | -7.17029 | 158.61478 | 31890 ft | 516 kts | 327° |
| 2026-05-03 21:07 | -7.10754 | 158.57562 | 31889 ft | 515 kts | 327° |
| 2026-05-03 21:07 | -7.04525 | 158.53677 | 31889 ft | 517 kts | 327° |
| 2026-05-03 21:08 | -6.98224 | 158.49750 | 31889 ft | 516 kts | 327° |
| 2026-05-03 21:08 | -6.91897 | 158.45807 | 31892 ft | 516 kts | 327° |
| 2026-05-03 21:09 | -6.85752 | 158.41977 | 31889 ft | 514 kts | 327° |
| 2026-05-03 21:09 | -6.79620 | 158.38158 | 31889 ft | 514 kts | 327° |
| 2026-05-03 21:10 | -6.73360 | 158.34259 | 31889 ft | 513 kts | 328° |
| 2026-05-03 21:10 | -6.67247 | 158.30453 | 31887 ft | 513 kts | 328° |
| 2026-05-03 21:11 | -6.61097 | 158.26627 | 31884 ft | 514 kts | 328° |
| 2026-05-03 21:11 | -6.54862 | 158.22746 | 31875 ft | 513 kts | 328° |
| 2026-05-03 21:12 | -6.48699 | 158.18913 | 31870 ft | 513 kts | 328° |
| 2026-05-03 21:12 | -6.42525 | 158.15076 | 31871 ft | 513 kts | 328° |
| 2026-05-03 21:13 | -6.36315 | 158.11215 | 31871 ft | 513 kts | 328° |
| 2026-05-03 21:13 | -6.30161 | 158.07390 | 31869 ft | 512 kts | 328° |
| 2026-05-03 21:14 | -6.23962 | 158.03540 | 31869 ft | 512 kts | 328° |
| 2026-05-03 21:14 | -6.17814 | 157.99721 | 31871 ft | 512 kts | 328° |
| 2026-05-03 21:15 | -6.11723 | 157.95940 | 31873 ft | 510 kts | 328° |
| 2026-05-03 21:15 | -6.05593 | 157.92134 | 31872 ft | 510 kts | 328° |
| 2026-05-03 21:16 | -5.99520 | 157.88365 | 31867 ft | 511 kts | 328° |
| 2026-05-03 21:16 | -5.93433 | 157.84589 | 31875 ft | 511 kts | 328° |
| 2026-05-03 21:17 | -5.88332 | 157.81426 | 31881 ft | 513 kts | 328° |
| 2026-05-03 21:17 | -5.81273 | 157.77048 | 31886 ft | 510 kts | 328° |
| 2026-05-03 21:18 | -5.75109 | 157.73227 | 31886 ft | 509 kts | 328° |
| 2026-05-03 21:18 | -5.69060 | 157.69478 | 31887 ft | 511 kts | 328° |
| 2026-05-03 21:19 | -5.62932 | 157.65681 | 31889 ft | 512 kts | 328° |
| 2026-05-03 21:19 | -5.56744 | 157.61870 | 31890 ft | 511 kts | 329° |
| 2026-05-03 21:20 | -5.50631 | 157.58124 | 31889 ft | 510 kts | 329° |
| 2026-05-03 21:20 | -5.44519 | 157.54376 | 31890 ft | 510 kts | 329° |
| 2026-05-03 21:21 | -5.38391 | 157.50619 | 31890 ft | 510 kts | 329° |
| 2026-05-03 21:21 | -5.32315 | 157.46895 | 31890 ft | 509 kts | 329° |
| 2026-05-03 21:22 | -5.26190 | 157.43143 | 31890 ft | 509 kts | 329° |
| 2026-05-03 21:22 | -5.20070 | 157.39392 | 31890 ft | 509 kts | 329° |
| 2026-05-03 21:23 | -5.13968 | 157.35654 | 31890 ft | 508 kts | 329° |
| 2026-05-03 21:23 | -5.07907 | 157.31941 | 31888 ft | 509 kts | 329° |
| 2026-05-03 21:24 | -5.01813 | 157.28210 | 31888 ft | 509 kts | 329° |
| 2026-05-03 21:24 | -4.95729 | 157.24486 | 31879 ft | 509 kts | 329° |
| 2026-05-03 21:25 | -4.89614 | 157.20744 | 31869 ft | 508 kts | 329° |
| 2026-05-03 21:25 | -4.83549 | 157.17032 | 31868 ft | 508 kts | 329° |
| 2026-05-03 21:26 | -4.77493 | 157.13327 | 31867 ft | 508 kts | 329° |
| 2026-05-03 21:26 | -4.71424 | 157.09615 | 31867 ft | 508 kts | 329° |
| 2026-05-03 21:27 | -4.65300 | 157.05870 | 31868 ft | 507 kts | 329° |
| 2026-05-03 21:27 | -4.59166 | 157.02119 | 31868 ft | 507 kts | 329° |
| 2026-05-03 21:28 | -4.53066 | 156.98392 | 31868 ft | 507 kts | 329° |
| 2026-05-03 21:28 | -4.46853 | 156.94594 | 31869 ft | 507 kts | 329° |
| 2026-05-03 21:29 | -4.40730 | 156.90852 | 31869 ft | 508 kts | 329° |
| 2026-05-03 21:29 | -4.34568 | 156.87088 | 31868 ft | 507 kts | 329° |
| 2026-05-03 21:30 | -4.28426 | 156.83336 | 31869 ft | 507 kts | 329° |
| 2026-05-03 21:30 | -4.22259 | 156.79570 | 31869 ft | 507 kts | 329° |
| 2026-05-03 21:31 | -4.16134 | 156.75830 | 31869 ft | 507 kts | 329° |
| 2026-05-03 21:31 | -4.10069 | 156.72128 | 31879 ft | 507 kts | 329° |
| 2026-05-03 21:32 | -4.03899 | 156.68362 | 31888 ft | 507 kts | 329° |
| 2026-05-03 21:32 | -3.97761 | 156.64616 | 31890 ft | 506 kts | 329° |
| 2026-05-03 21:33 | -3.91637 | 156.60879 | 31889 ft | 506 kts | 329° |
| 2026-05-03 21:33 | -3.85575 | 156.57182 | 31891 ft | 506 kts | 329° |
| 2026-05-03 21:34 | -3.79504 | 156.53479 | 31891 ft | 506 kts | 329° |
| 2026-05-03 21:34 | -3.73365 | 156.49736 | 31890 ft | 506 kts | 329° |
| 2026-05-03 21:35 | -3.67213 | 156.45985 | 31890 ft | 506 kts | 329° |
| 2026-05-03 21:35 | -3.61050 | 156.42227 | 31890 ft | 506 kts | 329° |
| 2026-05-03 21:36 | -3.54949 | 156.38509 | 31890 ft | 506 kts | 329° |
| 2026-05-03 21:36 | -3.48771 | 156.34744 | 31890 ft | 506 kts | 329° |
| 2026-05-03 21:37 | -3.42748 | 156.31074 | 31888 ft | 506 kts | 329° |
| 2026-05-03 21:37 | -3.36671 | 156.27371 | 31888 ft | 506 kts | 329° |
| 2026-05-03 21:38 | -3.30543 | 156.23639 | 31888 ft | 506 kts | 329° |
| 2026-05-03 21:38 | -3.24401 | 156.19897 | 31885 ft | 506 kts | 329° |
| 2026-05-03 21:39 | -3.18289 | 156.16176 | 31881 ft | 506 kts | 329° |
| 2026-05-03 21:39 | -3.12177 | 156.12454 | 31874 ft | 505 kts | 329° |
| 2026-05-03 21:40 | -3.06080 | 156.08743 | 31867 ft | 505 kts | 329° |
| 2026-05-03 21:40 | -2.99926 | 156.04997 | 31867 ft | 506 kts | 329° |
| 2026-05-03 21:41 | -2.93781 | 156.01257 | 31868 ft | 507 kts | 329° |
| 2026-05-03 21:41 | -2.87668 | 155.97537 | 31867 ft | 506 kts | 329° |
| 2026-05-03 21:42 | -2.81645 | 155.93872 | 31869 ft | 507 kts | 329° |
| 2026-05-03 21:42 | -2.75544 | 155.90160 | 31869 ft | 506 kts | 329° |
| 2026-05-03 21:43 | -2.69355 | 155.86395 | 31869 ft | 507 kts | 329° |
| 2026-05-03 21:43 | -2.63182 | 155.82640 | 31869 ft | 507 kts | 329° |
| 2026-05-03 21:44 | -2.57022 | 155.78893 | 31874 ft | 507 kts | 329° |
| 2026-05-03 21:44 | -2.50825 | 155.75125 | 31884 ft | 507 kts | 329° |
| 2026-05-03 21:45 | -2.44626 | 155.71356 | 31890 ft | 507 kts | 329° |
| 2026-05-03 21:45 | -2.38476 | 155.67616 | 31889 ft | 508 kts | 329° |
| 2026-05-03 21:46 | -2.32316 | 155.63872 | 31890 ft | 508 kts | 329° |
| 2026-05-03 21:46 | -2.26077 | 155.60080 | 31891 ft | 508 kts | 330° |
| 2026-05-03 21:47 | -2.19925 | 155.56340 | 31890 ft | 508 kts | 329° |
| 2026-05-03 21:47 | -2.13771 | 155.52600 | 31890 ft | 508 kts | 329° |
| 2026-05-03 21:48 | -2.07550 | 155.48820 | 31890 ft | 508 kts | 329° |
| 2026-05-03 21:48 | -2.01358 | 155.45058 | 31890 ft | 509 kts | 330° |
| 2026-05-03 21:49 | -1.95122 | 155.41269 | 31890 ft | 508 kts | 330° |
| 2026-05-03 21:49 | -1.88919 | 155.37500 | 31889 ft | 509 kts | 330° |
| 2026-05-03 21:50 | -1.82856 | 155.33818 | 31888 ft | 508 kts | 330° |
| 2026-05-03 21:50 | -1.76768 | 155.30119 | 31888 ft | 507 kts | 330° |
| 2026-05-03 21:51 | -1.70611 | 155.26379 | 31886 ft | 507 kts | 330° |
| 2026-05-03 21:51 | -1.64437 | 155.22630 | 31887 ft | 507 kts | 330° |
| 2026-05-03 21:52 | -1.58283 | 155.18893 | 31887 ft | 508 kts | 330° |
| 2026-05-03 21:52 | -1.52103 | 155.15140 | 31887 ft | 508 kts | 330° |
| 2026-05-03 21:53 | -1.45880 | 155.11362 | 31876 ft | 507 kts | 330° |
| 2026-05-03 21:53 | -1.39740 | 155.07634 | 31869 ft | 507 kts | 330° |
| 2026-05-03 21:54 | -1.33562 | 155.03883 | 31865 ft | 507 kts | 330° |
| 2026-05-03 21:54 | -1.27348 | 155.00111 | 31866 ft | 507 kts | 330° |
| 2026-05-03 21:55 | -1.21150 | 154.96349 | 31868 ft | 507 kts | 330° |
| 2026-05-03 21:55 | -1.15000 | 154.92616 | 31866 ft | 508 kts | 330° |
| 2026-05-03 21:56 | -1.08788 | 154.88844 | 31868 ft | 508 kts | 330° |
| 2026-05-03 21:56 | -1.02570 | 154.85071 | 31866 ft | 508 kts | 330° |
| 2026-05-03 21:57 | -0.96398 | 154.81325 | 31876 ft | 508 kts | 330° |
| 2026-05-03 21:57 | -0.90174 | 154.77548 | 31882 ft | 507 kts | 330° |
| 2026-05-03 21:58 | -0.84113 | 154.73869 | 31888 ft | 507 kts | 330° |
| 2026-05-03 21:58 | -0.78043 | 154.70186 | 31891 ft | 507 kts | 330° |
| 2026-05-03 21:59 | -0.71810 | 154.66403 | 31891 ft | 507 kts | 330° |
| 2026-05-03 21:59 | -0.65578 | 154.62622 | 31891 ft | 507 kts | 330° |
| 2026-05-03 22:00 | -0.59444 | 154.58900 | 31890 ft | 507 kts | 330° |
| 2026-05-03 22:00 | -0.53228 | 154.55129 | 31890 ft | 507 kts | 330° |
| 2026-05-03 22:01 | -0.47012 | 154.51356 | 31890 ft | 507 kts | 330° |
| 2026-05-03 22:01 | -0.40822 | 154.47601 | 31890 ft | 506 kts | 330° |
| 2026-05-03 22:02 | -0.34657 | 154.43860 | 31890 ft | 506 kts | 330° |
| 2026-05-03 22:02 | -0.28477 | 154.40111 | 31890 ft | 507 kts | 330° |
| 2026-05-03 22:03 | -0.22189 | 154.36296 | 31890 ft | 507 kts | 330° |
| 2026-05-03 22:03 | -0.16125 | 154.32617 | 31888 ft | 507 kts | 330° |
| 2026-05-03 22:04 | -0.10021 | 154.28914 | 31887 ft | 506 kts | 330° |
| 2026-05-03 22:04 | -0.03774 | 154.25124 | 31887 ft | 505 kts | 330° |
| 2026-05-03 22:05 | 0.02378 | 154.21388 | 31887 ft | 505 kts | 330° |
| 2026-05-03 22:05 | 0.08626 | 154.17581 | 31886 ft | 506 kts | 330° |
| 2026-05-03 22:06 | 0.14690 | 154.13887 | 31889 ft | 507 kts | 330° |
| 2026-05-03 22:06 | 0.20794 | 154.10169 | 31883 ft | 507 kts | 330° |
| 2026-05-03 22:07 | 0.26970 | 154.06406 | 31874 ft | 506 kts | 329° |
| 2026-05-03 22:07 | 0.33150 | 154.02641 | 31869 ft | 506 kts | 330° |
| 2026-05-03 22:08 | 0.39332 | 153.98875 | 31869 ft | 506 kts | 330° |
| 2026-05-03 22:08 | 0.45478 | 153.95132 | 31869 ft | 506 kts | 330° |
| 2026-05-03 22:09 | 0.51659 | 153.91367 | 31869 ft | 507 kts | 330° |
| 2026-05-03 22:10 | 0.60956 | 153.85704 | 31880 ft | 506 kts | 330° |
| 2026-05-03 22:10 | 0.67080 | 153.81972 | 31889 ft | 506 kts | 330° |
| 2026-05-03 22:11 | 0.73270 | 153.78201 | 31890 ft | 506 kts | 330° |
| 2026-05-03 22:11 | 0.79463 | 153.74429 | 31889 ft | 506 kts | 330° |
| 2026-05-03 22:12 | 0.85601 | 153.70689 | 31889 ft | 507 kts | 330° |
| 2026-05-03 22:12 | 0.91742 | 153.66948 | 31889 ft | 508 kts | 330° |
| 2026-05-03 22:13 | 0.97907 | 153.63191 | 31890 ft | 507 kts | 330° |
| 2026-05-03 22:13 | 1.04106 | 153.59415 | 31888 ft | 507 kts | 330° |
| 2026-05-03 22:14 | 1.10247 | 153.55672 | 31888 ft | 506 kts | 330° |
| 2026-05-03 22:14 | 1.16261 | 153.52006 | 31891 ft | 506 kts | 330° |
| 2026-05-03 22:15 | 1.22410 | 153.48261 | 31890 ft | 507 kts | 330° |
| 2026-05-03 22:15 | 1.28543 | 153.44522 | 31891 ft | 507 kts | 330° |
| 2026-05-03 22:16 | 1.34687 | 153.40778 | 31893 ft | 506 kts | 330° |
| 2026-05-03 22:16 | 1.40860 | 153.37015 | 31893 ft | 506 kts | 330° |
| 2026-05-03 22:17 | 1.46995 | 153.33276 | 31888 ft | 506 kts | 330° |
| 2026-05-03 22:17 | 1.53039 | 153.29591 | 31887 ft | 505 kts | 330° |
| 2026-05-03 22:18 | 1.59184 | 153.25845 | 31889 ft | 506 kts | 330° |
| 2026-05-03 22:18 | 1.65354 | 153.22082 | 31889 ft | 506 kts | 330° |
| 2026-05-03 22:19 | 1.71484 | 153.18346 | 31888 ft | 505 kts | 330° |
| 2026-05-03 22:19 | 1.77632 | 153.14597 | 31886 ft | 504 kts | 330° |
| 2026-05-03 22:20 | 1.83788 | 153.10843 | 31883 ft | 504 kts | 330° |
| 2026-05-03 22:20 | 1.89919 | 153.07103 | 31881 ft | 504 kts | 330° |
| 2026-05-03 22:21 | 1.96111 | 153.03326 | 31871 ft | 505 kts | 330° |
| 2026-05-03 22:21 | 2.02303 | 152.99550 | 31874 ft | 506 kts | 330° |
| 2026-05-03 22:22 | 2.08483 | 152.95781 | 31884 ft | 507 kts | 330° |
| 2026-05-03 22:22 | 2.14569 | 152.92067 | 31888 ft | 508 kts | 330° |
| 2026-05-03 22:23 | 2.20697 | 152.88329 | 31886 ft | 508 kts | 330° |
| 2026-05-03 22:23 | 2.26944 | 152.84517 | 31885 ft | 507 kts | 330° |
| 2026-05-03 22:24 | 2.33190 | 152.80704 | 31889 ft | 507 kts | 330° |
| 2026-05-03 22:24 | 2.39460 | 152.76877 | 31890 ft | 508 kts | 330° |
| 2026-05-03 22:25 | 2.45735 | 152.73047 | 31890 ft | 508 kts | 330° |
| 2026-05-03 22:25 | 2.52018 | 152.69212 | 31890 ft | 508 kts | 330° |
| 2026-05-03 22:26 | 2.58207 | 152.65433 | 31891 ft | 508 kts | 330° |
| 2026-05-03 22:26 | 2.64567 | 152.61549 | 31890 ft | 508 kts | 330° |
| 2026-05-03 22:27 | 2.70823 | 152.57730 | 31890 ft | 507 kts | 330° |
| 2026-05-03 22:27 | 2.77068 | 152.53915 | 31891 ft | 508 kts | 330° |
| 2026-05-03 22:28 | 2.83353 | 152.50076 | 31891 ft | 508 kts | 330° |
| 2026-05-03 22:28 | 2.89761 | 152.46162 | 31891 ft | 509 kts | 330° |
| 2026-05-03 22:29 | 2.96086 | 152.42297 | 31890 ft | 509 kts | 330° |
| 2026-05-03 22:29 | 3.02411 | 152.38432 | 31885 ft | 508 kts | 330° |
| 2026-05-03 22:30 | 3.08749 | 152.34558 | 31877 ft | 508 kts | 330° |
| 2026-05-03 22:30 | 3.14875 | 152.30814 | 31871 ft | 508 kts | 330° |
| 2026-05-03 22:31 | 3.20970 | 152.27087 | 31868 ft | 509 kts | 330° |
| 2026-05-03 22:31 | 3.27340 | 152.23193 | 31868 ft | 509 kts | 330° |
| 2026-05-03 22:32 | 3.33628 | 152.19348 | 31868 ft | 509 kts | 330° |
| 2026-05-03 22:32 | 3.39806 | 152.15570 | 31868 ft | 508 kts | 330° |
| 2026-05-03 22:33 | 3.45965 | 152.11803 | 31868 ft | 508 kts | 330° |
| 2026-05-03 22:33 | 3.52397 | 152.07867 | 31868 ft | 509 kts | 330° |
| 2026-05-03 22:34 | 3.58750 | 152.03979 | 31873 ft | 509 kts | 330° |
| 2026-05-03 22:34 | 3.65096 | 152.00096 | 31884 ft | 509 kts | 330° |
| 2026-05-03 22:35 | 3.71305 | 151.96295 | 31888 ft | 508 kts | 330° |
| 2026-05-03 22:35 | 3.77583 | 151.92452 | 31888 ft | 508 kts | 330° |
| 2026-05-03 22:36 | 3.83889 | 151.88591 | 31889 ft | 508 kts | 330° |
| 2026-05-03 22:36 | 3.90123 | 151.84773 | 31889 ft | 509 kts | 330° |
| 2026-05-03 22:37 | 3.96469 | 151.80887 | 31888 ft | 508 kts | 330° |
| 2026-05-03 22:37 | 4.02862 | 151.76970 | 31889 ft | 508 kts | 330° |
| 2026-05-03 22:38 | 4.09235 | 151.73065 | 31888 ft | 508 kts | 330° |
| 2026-05-03 22:38 | 4.15323 | 151.69334 | 31891 ft | 508 kts | 330° |
| 2026-05-03 22:39 | 4.21529 | 151.65530 | 31890 ft | 508 kts | 330° |
| 2026-05-03 22:39 | 4.27698 | 151.61748 | 31890 ft | 508 kts | 330° |
| 2026-05-03 22:40 | 4.34008 | 151.57878 | 31888 ft | 507 kts | 330° |
| 2026-05-03 22:40 | 4.40153 | 151.54109 | 31883 ft | 508 kts | 330° |
| 2026-05-03 22:41 | 4.46358 | 151.50302 | 31876 ft | 508 kts | 330° |
| 2026-05-03 22:41 | 4.52642 | 151.46448 | 31871 ft | 508 kts | 330° |
| 2026-05-03 22:42 | 4.58980 | 151.42558 | 31870 ft | 507 kts | 330° |
| 2026-05-03 22:42 | 4.65137 | 151.38779 | 31870 ft | 507 kts | 330° |
| 2026-05-03 22:43 | 4.71467 | 151.34892 | 31870 ft | 507 kts | 330° |
| 2026-05-03 22:43 | 4.77536 | 151.31166 | 31867 ft | 507 kts | 330° |
| 2026-05-03 22:44 | 4.83690 | 151.27385 | 31866 ft | 507 kts | 330° |
| 2026-05-03 22:44 | 4.89957 | 151.23535 | 31866 ft | 506 kts | 330° |
| 2026-05-03 22:45 | 4.96340 | 151.19614 | 31866 ft | 505 kts | 330° |
| 2026-05-03 22:45 | 5.02600 | 151.15765 | 31866 ft | 505 kts | 330° |
| 2026-05-03 22:46 | 5.08914 | 151.11883 | 31869 ft | 506 kts | 330° |
| 2026-05-03 22:46 | 5.15037 | 151.08119 | 31874 ft | 506 kts | 330° |
| 2026-05-03 22:47 | 5.21152 | 151.04358 | 31882 ft | 506 kts | 330° |
| 2026-05-03 22:47 | 5.27290 | 151.00581 | 31885 ft | 505 kts | 330° |
| 2026-05-03 22:48 | 5.33479 | 150.96774 | 31887 ft | 506 kts | 330° |
| 2026-05-03 22:48 | 5.39676 | 150.92960 | 31887 ft | 505 kts | 330° |
| 2026-05-03 22:49 | 5.45998 | 150.89069 | 31882 ft | 506 kts | 330° |
| 2026-05-03 22:49 | 5.52126 | 150.85294 | 31880 ft | 505 kts | 330° |
| 2026-05-03 22:50 | 5.58453 | 150.81396 | 31878 ft | 504 kts | 330° |
| 2026-05-03 22:50 | 5.64634 | 150.77589 | 31874 ft | 504 kts | 330° |
| 2026-05-03 22:51 | 5.70914 | 150.73720 | 31869 ft | 504 kts | 330° |
| 2026-05-03 22:51 | 5.77028 | 150.69951 | 31869 ft | 504 kts | 330° |
| 2026-05-03 22:52 | 5.83296 | 150.66086 | 31868 ft | 504 kts | 330° |
| 2026-05-03 22:52 | 5.89429 | 150.62303 | 31869 ft | 504 kts | 330° |
| 2026-05-03 22:53 | 5.95452 | 150.58588 | 31867 ft | 503 kts | 330° |
| 2026-05-03 22:53 | 6.01623 | 150.54781 | 32357 ft | 509 kts | 330° |
| 2026-05-03 22:53 | 6.04736 | 150.52858 | 33259 ft | 502 kts | 330° |
| 2026-05-03 22:54 | 6.07788 | 150.50975 | 33835 ft | 501 kts | 330° |
| 2026-05-03 22:54 | 6.13768 | 150.47311 | 33870 ft | 498 kts | 330° |
| 2026-05-03 22:55 | 6.19709 | 150.43672 | 33871 ft | 498 kts | 330° |
| 2026-05-03 22:55 | 6.25654 | 150.40028 | 33871 ft | 498 kts | 330° |
| 2026-05-03 22:56 | 6.31719 | 150.36310 | 33872 ft | 498 kts | 330° |
| 2026-05-03 22:56 | 6.37716 | 150.32632 | 33867 ft | 498 kts | 330° |
| 2026-05-03 22:57 | 6.43645 | 150.28995 | 33867 ft | 497 kts | 330° |
| 2026-05-03 22:57 | 6.49598 | 150.25342 | 33873 ft | 498 kts | 330° |
| 2026-05-03 22:58 | 6.55635 | 150.21637 | 33877 ft | 499 kts | 330° |
| 2026-05-03 22:58 | 6.61721 | 150.17899 | 33883 ft | 498 kts | 330° |
| 2026-05-03 22:59 | 6.67712 | 150.14220 | 33887 ft | 497 kts | 330° |
| 2026-05-03 22:59 | 6.73822 | 150.10466 | 33886 ft | 498 kts | 330° |
| 2026-05-03 23:00 | 6.79852 | 150.06760 | 33885 ft | 498 kts | 330° |
| 2026-05-03 23:00 | 6.85895 | 150.03044 | 33884 ft | 499 kts | 330° |
| 2026-05-03 23:01 | 6.91920 | 149.99339 | 33885 ft | 500 kts | 331° |
| 2026-05-03 23:01 | 6.98032 | 149.95579 | 33885 ft | 498 kts | 330° |
| 2026-05-03 23:02 | 7.04002 | 149.91907 | 33887 ft | 497 kts | 330° |
| 2026-05-03 23:02 | 7.10019 | 149.88203 | 33878 ft | 498 kts | 330° |
| 2026-05-03 23:03 | 7.15981 | 149.84532 | 33878 ft | 498 kts | 330° |
| 2026-05-03 23:03 | 7.21917 | 149.80876 | 33875 ft | 499 kts | 330° |
| 2026-05-03 23:04 | 7.27875 | 149.77205 | 33873 ft | 499 kts | 330° |
| 2026-05-03 23:04 | 7.33904 | 149.73489 | 33872 ft | 498 kts | 330° |
| 2026-05-03 23:05 | 7.39846 | 149.69826 | 33869 ft | 497 kts | 330° |
| 2026-05-03 23:05 | 7.45859 | 149.66118 | 33871 ft | 498 kts | 330° |
| 2026-05-03 23:06 | 7.51800 | 149.62453 | 33869 ft | 498 kts | 330° |
| 2026-05-03 23:06 | 7.57868 | 149.58710 | 33870 ft | 499 kts | 330° |
| 2026-05-03 23:07 | 7.63858 | 149.55011 | 33869 ft | 498 kts | 330° |
| 2026-05-03 23:07 | 7.69955 | 149.51247 | 33869 ft | 498 kts | 330° |
| 2026-05-03 23:08 | 7.75942 | 149.47548 | 33869 ft | 498 kts | 330° |
| 2026-05-03 23:08 | 7.82023 | 149.43791 | 33870 ft | 498 kts | 330° |
| 2026-05-03 23:09 | 7.88052 | 149.40063 | 33872 ft | 499 kts | 330° |
| 2026-05-03 23:09 | 7.94185 | 149.36272 | 33879 ft | 498 kts | 330° |
| 2026-05-03 23:10 | 8.00220 | 149.32539 | 33879 ft | 499 kts | 330° |
| 2026-05-03 23:10 | 8.06140 | 149.28876 | 33879 ft | 498 kts | 330° |
| 2026-05-03 23:11 | 8.12111 | 149.25180 | 33887 ft | 499 kts | 330° |
| 2026-05-03 23:11 | 8.18079 | 149.21484 | 33885 ft | 499 kts | 330° |
| 2026-05-03 23:12 | 8.24017 | 149.17806 | 33891 ft | 499 kts | 330° |
| 2026-05-03 23:12 | 8.30068 | 149.14056 | 33886 ft | 500 kts | 330° |
| 2026-05-03 23:13 | 8.36098 | 149.10318 | 33888 ft | 501 kts | 330° |
| 2026-05-03 23:13 | 8.42258 | 149.06499 | 33888 ft | 501 kts | 330° |
| 2026-05-03 23:14 | 8.48253 | 149.02779 | 33890 ft | 501 kts | 330° |
| 2026-05-03 23:14 | 8.54440 | 148.98940 | 33889 ft | 503 kts | 331° |
| 2026-05-03 23:15 | 8.60505 | 148.95175 | 33886 ft | 501 kts | 330° |
| 2026-05-03 23:15 | 8.66521 | 148.91438 | 33891 ft | 503 kts | 330° |
| 2026-05-03 23:16 | 8.72513 | 148.87715 | 33892 ft | 502 kts | 330° |
| 2026-05-03 23:16 | 8.78626 | 148.83916 | 33894 ft | 505 kts | 330° |
| 2026-05-03 23:17 | 8.84751 | 148.80109 | 33894 ft | 504 kts | 331° |
| 2026-05-03 23:17 | 8.90981 | 148.76233 | 33888 ft | 504 kts | 330° |
| 2026-05-03 23:18 | 8.97046 | 148.72459 | 33893 ft | 506 kts | 331° |
| 2026-05-03 23:18 | 9.03281 | 148.68578 | 33893 ft | 504 kts | 330° |
| 2026-05-03 23:19 | 9.09353 | 148.64796 | 33885 ft | 505 kts | 330° |
| 2026-05-03 23:19 | 9.15373 | 148.61046 | 33894 ft | 506 kts | 330° |
| 2026-05-03 23:20 | 9.21429 | 148.57271 | 33896 ft | 508 kts | 330° |
| 2026-05-03 23:20 | 9.27489 | 148.53493 | 33904 ft | 510 kts | 330° |
| 2026-05-03 23:21 | 9.33551 | 148.49712 | 33905 ft | 510 kts | 330° |
| 2026-05-03 23:21 | 9.39686 | 148.45883 | 33902 ft | 509 kts | 330° |
| 2026-05-03 23:22 | 9.48819 | 148.40181 | 33913 ft | 510 kts | 330° |
| 2026-05-03 23:22 | 9.54921 | 148.36368 | 33911 ft | 509 kts | 329° |
| 2026-05-03 23:23 | 9.61037 | 148.32546 | 33907 ft | 510 kts | 329° |
| 2026-05-03 23:23 | 9.67106 | 148.28751 | 33903 ft | 511 kts | 329° |
| 2026-05-03 23:24 | 9.73167 | 148.24960 | 33903 ft | 509 kts | 329° |
| 2026-05-03 23:24 | 9.79297 | 148.21124 | 33902 ft | 512 kts | 329° |
| 2026-05-03 23:25 | 9.85366 | 148.17325 | 33906 ft | 510 kts | 329° |
| 2026-05-03 23:25 | 9.91464 | 148.13506 | 33905 ft | 509 kts | 329° |
| 2026-05-03 23:26 | 9.97516 | 148.09714 | 33912 ft | 510 kts | 329° |
| 2026-05-03 23:26 | 10.03537 | 148.05939 | 33909 ft | 508 kts | 329° |
| 2026-05-03 23:27 | 10.09641 | 148.02110 | 33910 ft | 508 kts | 329° |
| 2026-05-03 23:27 | 10.15733 | 147.98288 | 33909 ft | 509 kts | 329° |
| 2026-05-03 23:28 | 10.21786 | 147.94488 | 33911 ft | 510 kts | 328° |
| 2026-05-03 23:28 | 10.27875 | 147.90665 | 33909 ft | 511 kts | 329° |
| 2026-05-03 23:29 | 10.33950 | 147.86847 | 33912 ft | 509 kts | 328° |
| 2026-05-03 23:29 | 10.40018 | 147.83034 | 33908 ft | 510 kts | 328° |
| 2026-05-03 23:30 | 10.46108 | 147.79204 | 33903 ft | 511 kts | 328° |
| 2026-05-03 23:30 | 10.52215 | 147.75371 | 33900 ft | 510 kts | 328° |
| 2026-05-03 23:31 | 10.58339 | 147.71530 | 33903 ft | 511 kts | 328° |
| 2026-05-03 23:31 | 10.64419 | 147.67712 | 33902 ft | 509 kts | 328° |
| 2026-05-03 23:32 | 10.70517 | 147.63882 | 33905 ft | 510 kts | 328° |
| 2026-05-03 23:32 | 10.76585 | 147.60071 | 33906 ft | 510 kts | 328° |
| 2026-05-03 23:33 | 10.82752 | 147.56194 | 33922 ft | 509 kts | 328° |
| 2026-05-03 23:33 | 10.88884 | 147.52336 | 33924 ft | 509 kts | 328° |
| 2026-05-03 23:34 | 10.95030 | 147.48468 | 33929 ft | 508 kts | 328° |
| 2026-05-03 23:34 | 11.01071 | 147.44665 | 33931 ft | 507 kts | 328° |
| 2026-05-03 23:35 | 11.07274 | 147.40758 | 33933 ft | 508 kts | 328° |
| 2026-05-03 23:35 | 11.13343 | 147.36932 | 33931 ft | 509 kts | 328° |
| 2026-05-03 23:36 | 11.19382 | 147.33125 | 33925 ft | 507 kts | 328° |
| 2026-05-03 23:36 | 11.25421 | 147.29315 | 33926 ft | 508 kts | 328° |
| 2026-05-03 23:37 | 11.31465 | 147.25501 | 33926 ft | 508 kts | 328° |
| 2026-05-03 23:37 | 11.37486 | 147.21698 | 33925 ft | 506 kts | 328° |
| 2026-05-03 23:38 | 11.43714 | 147.17764 | 33922 ft | 507 kts | 328° |
| 2026-05-03 23:38 | 11.49856 | 147.13881 | 33920 ft | 508 kts | 328° |
| 2026-05-03 23:39 | 11.55538 | 147.09564 | 33916 ft | 508 kts | 314° |
| 2026-05-03 23:39 | 11.60193 | 147.04082 | 33921 ft | 507 kts | 309° |
| 2026-05-03 23:40 | 11.64772 | 146.98448 | 33923 ft | 508 kts | 309° |
| 2026-05-03 23:40 | 11.69410 | 146.92737 | 33925 ft | 507 kts | 309° |
| 2026-05-03 23:41 | 11.74081 | 146.86981 | 33925 ft | 506 kts | 309° |
| 2026-05-03 23:41 | 11.78701 | 146.81285 | 33928 ft | 507 kts | 309° |
| 2026-05-03 23:42 | 11.83366 | 146.75531 | 33927 ft | 507 kts | 309° |
| 2026-05-03 23:42 | 11.88040 | 146.69762 | 33929 ft | 507 kts | 309° |
| 2026-05-03 23:43 | 11.92646 | 146.64072 | 33932 ft | 507 kts | 309° |
| 2026-05-03 23:43 | 11.97263 | 146.58366 | 33923 ft | 507 kts | 309° |
| 2026-05-03 23:44 | 12.01839 | 146.52708 | 33912 ft | 505 kts | 309° |
| 2026-05-03 23:44 | 12.06398 | 146.47067 | 33914 ft | 507 kts | 309° |
| 2026-05-03 23:45 | 12.10933 | 146.41452 | 33912 ft | 507 kts | 309° |
| 2026-05-03 23:45 | 12.15425 | 146.35889 | 33913 ft | 506 kts | 309° |
| 2026-05-03 23:46 | 12.19933 | 146.30299 | 33917 ft | 507 kts | 309° |
| 2026-05-03 23:46 | 12.24434 | 146.24718 | 33926 ft | 506 kts | 309° |
| 2026-05-03 23:47 | 12.28915 | 146.19157 | 33937 ft | 506 kts | 309° |
| 2026-05-03 23:47 | 12.33473 | 146.13498 | 33938 ft | 507 kts | 309° |
| 2026-05-03 23:48 | 12.38038 | 146.07828 | 33938 ft | 506 kts | 309° |
| 2026-05-03 23:48 | 12.42561 | 146.02203 | 33938 ft | 507 kts | 309° |
| 2026-05-03 23:49 | 12.47098 | 145.96561 | 33942 ft | 506 kts | 309° |
| 2026-05-03 23:49 | 12.51646 | 145.90900 | 33942 ft | 507 kts | 309° |
| 2026-05-03 23:50 | 12.56188 | 145.85242 | 33943 ft | 508 kts | 309° |
| 2026-05-03 23:50 | 12.60703 | 145.79614 | 33946 ft | 507 kts | 309° |
| 2026-05-03 23:51 | 12.65218 | 145.73984 | 33945 ft | 509 kts | 309° |
| 2026-05-03 23:51 | 12.69760 | 145.68317 | 33940 ft | 507 kts | 309° |
| 2026-05-03 23:52 | 12.74279 | 145.62674 | 33935 ft | 505 kts | 309° |
| 2026-05-03 23:52 | 12.78805 | 145.57021 | 33933 ft | 508 kts | 309° |
| 2026-05-03 23:53 | 12.83369 | 145.51315 | 33930 ft | 507 kts | 309° |
| 2026-05-03 23:53 | 12.87887 | 145.45662 | 33933 ft | 506 kts | 309° |
| 2026-05-03 23:54 | 12.92368 | 145.40054 | 33930 ft | 507 kts | 309° |
| 2026-05-03 23:54 | 12.96892 | 145.34389 | 33930 ft | 504 kts | 309° |
| 2026-05-03 23:55 | 13.01329 | 145.28827 | 33930 ft | 505 kts | 309° |
| 2026-05-03 23:55 | 13.05789 | 145.23233 | 33929 ft | 504 kts | 309° |
| 2026-05-03 23:56 | 13.10239 | 145.17650 | 33932 ft | 505 kts | 309° |
| 2026-05-03 23:56 | 13.14703 | 145.12044 | 33930 ft | 504 kts | 309° |
| 2026-05-03 23:57 | 13.19129 | 145.06483 | 33926 ft | 505 kts | 309° |
| 2026-05-03 23:57 | 13.23589 | 145.00876 | 33936 ft | 503 kts | 309° |
| 2026-05-03 23:58 | 13.28015 | 144.95306 | 33948 ft | 504 kts | 309° |
| 2026-05-03 23:58 | 13.32430 | 144.89749 | 33955 ft | 502 kts | 309° |
| 2026-05-03 23:59 | 13.36869 | 144.84158 | 33963 ft | 500 kts | 309° |
| 2026-05-03 23:59 | 13.41256 | 144.78627 | 33965 ft | 499 kts | 309° |
| 2026-05-04 00:00 | 13.45715 | 144.73221 | 33962 ft | 495 kts | 316° |
| 2026-05-04 00:00 | 13.50910 | 144.68562 | 33965 ft | 495 kts | 320° |
| 2026-05-04 00:01 | 13.56175 | 144.63980 | 33962 ft | 492 kts | 320° |
| 2026-05-04 00:01 | 13.61404 | 144.59424 | 33956 ft | 491 kts | 319° |
| 2026-05-04 00:02 | 13.66643 | 144.54852 | 33951 ft | 492 kts | 319° |
| 2026-05-04 00:02 | 13.71846 | 144.50311 | 33958 ft | 490 kts | 319° |
| 2026-05-04 00:03 | 13.77106 | 144.45715 | 33966 ft | 488 kts | 319° |
| 2026-05-04 00:03 | 13.82270 | 144.41200 | 33966 ft | 488 kts | 319° |
| 2026-05-04 00:04 | 13.87465 | 144.36655 | 33966 ft | 487 kts | 319° |
| 2026-05-04 00:04 | 13.92629 | 144.32135 | 33969 ft | 488 kts | 319° |
| 2026-05-04 00:05 | 13.97820 | 144.27586 | 33970 ft | 486 kts | 319° |
| 2026-05-04 00:05 | 14.02990 | 144.23056 | 33973 ft | 485 kts | 319° |
| 2026-05-04 00:06 | 14.08163 | 144.18518 | 33971 ft | 486 kts | 319° |
| 2026-05-04 00:06 | 14.13335 | 144.13980 | 33963 ft | 486 kts | 319° |
| 2026-05-04 00:07 | 14.18502 | 144.09441 | 33958 ft | 487 kts | 319° |
| 2026-05-04 00:07 | 14.23635 | 144.04932 | 33955 ft | 486 kts | 319° |
| 2026-05-04 00:08 | 14.28829 | 144.00365 | 33956 ft | 485 kts | 319° |
| 2026-05-04 00:08 | 14.33996 | 143.95819 | 33958 ft | 485 kts | 319° |
| 2026-05-04 00:09 | 14.39171 | 143.91263 | 33960 ft | 484 kts | 319° |
| 2026-05-04 00:09 | 14.44352 | 143.86699 | 33960 ft | 485 kts | 319° |
| 2026-05-04 00:10 | 14.49500 | 143.82161 | 33961 ft | 484 kts | 319° |
| 2026-05-04 00:10 | 14.54704 | 143.77571 | 33963 ft | 484 kts | 319° |
| 2026-05-04 00:11 | 14.59876 | 143.73007 | 33963 ft | 486 kts | 319° |
| 2026-05-04 00:11 | 14.65057 | 143.68431 | 33962 ft | 484 kts | 319° |
| 2026-05-04 00:12 | 14.70243 | 143.63847 | 33963 ft | 485 kts | 319° |
| 2026-05-04 00:12 | 14.75427 | 143.59259 | 33966 ft | 483 kts | 319° |
| 2026-05-04 00:13 | 14.80604 | 143.54663 | 33966 ft | 482 kts | 319° |
| 2026-05-04 00:13 | 14.85764 | 143.50079 | 33969 ft | 483 kts | 319° |
| 2026-05-04 00:14 | 14.90904 | 143.45511 | 33968 ft | 483 kts | 319° |
| 2026-05-04 00:14 | 14.96007 | 143.40973 | 33970 ft | 483 kts | 319° |
| 2026-05-04 00:15 | 15.01120 | 143.36424 | 33970 ft | 481 kts | 319° |
| 2026-05-04 00:15 | 15.06247 | 143.31857 | 33969 ft | 483 kts | 319° |
| 2026-05-04 00:16 | 15.11321 | 143.27338 | 33979 ft | 481 kts | 318° |
| 2026-05-04 00:16 | 15.16432 | 143.22780 | 33977 ft | 482 kts | 318° |
| 2026-05-04 00:17 | 15.21510 | 143.18249 | 33978 ft | 481 kts | 318° |
| 2026-05-04 00:17 | 15.26570 | 143.13731 | 33979 ft | 481 kts | 318° |
| 2026-05-04 00:18 | 15.31654 | 143.09190 | 33975 ft | 479 kts | 318° |
| 2026-05-04 00:18 | 15.36750 | 143.04634 | 33978 ft | 479 kts | 318° |
| 2026-05-04 00:19 | 15.41808 | 143.00110 | 33975 ft | 479 kts | 318° |
| 2026-05-04 00:19 | 15.46887 | 142.95563 | 33981 ft | 479 kts | 318° |
| 2026-05-04 00:20 | 15.51988 | 142.90994 | 33979 ft | 479 kts | 318° |
| 2026-05-04 00:20 | 15.57074 | 142.86435 | 33983 ft | 480 kts | 318° |
| 2026-05-04 00:21 | 15.62169 | 142.81865 | 33983 ft | 479 kts | 318° |
| 2026-05-04 00:21 | 15.67251 | 142.77304 | 33983 ft | 480 kts | 317° |
| 2026-05-04 00:22 | 15.72300 | 142.72769 | 33985 ft | 479 kts | 317° |
| 2026-05-04 00:22 | 15.77336 | 142.68242 | 33987 ft | 479 kts | 317° |
| 2026-05-04 00:23 | 15.82409 | 142.63680 | 33983 ft | 478 kts | 317° |
| 2026-05-04 00:23 | 15.87470 | 142.59125 | 33986 ft | 477 kts | 317° |
| 2026-05-04 00:24 | 15.92511 | 142.54584 | 33982 ft | 479 kts | 317° |
| 2026-05-04 00:24 | 15.97579 | 142.50015 | 33988 ft | 478 kts | 317° |
| 2026-05-04 00:25 | 16.02650 | 142.45442 | 33986 ft | 479 kts | 317° |
| 2026-05-04 00:25 | 16.07730 | 142.40857 | 33988 ft | 479 kts | 317° |
| 2026-05-04 00:26 | 16.12798 | 142.36279 | 33985 ft | 479 kts | 317° |
| 2026-05-04 00:26 | 16.17822 | 142.31737 | 33985 ft | 478 kts | 317° |
| 2026-05-04 00:27 | 16.22823 | 142.27214 | 33983 ft | 477 kts | 317° |
| 2026-05-04 00:27 | 16.27867 | 142.22647 | 33987 ft | 477 kts | 317° |
| 2026-05-04 00:28 | 16.32889 | 142.18098 | 33978 ft | 478 kts | 317° |
| 2026-05-04 00:28 | 16.37901 | 142.13556 | 33990 ft | 476 kts | 317° |
| 2026-05-04 00:29 | 16.42953 | 142.08972 | 33988 ft | 476 kts | 317° |
| 2026-05-04 00:29 | 16.47987 | 142.04402 | 33982 ft | 476 kts | 317° |
| 2026-05-04 00:30 | 16.52971 | 141.99875 | 33983 ft | 475 kts | 317° |
| 2026-05-04 00:30 | 16.58033 | 141.95273 | 33981 ft | 476 kts | 317° |
| 2026-05-04 00:31 | 16.63068 | 141.90720 | 33982 ft | 477 kts | 317° |
| 2026-05-04 00:31 | 16.68137 | 141.86144 | 33983 ft | 476 kts | 317° |
| 2026-05-04 00:32 | 16.73203 | 141.81564 | 33984 ft | 475 kts | 317° |
| 2026-05-04 00:32 | 16.78215 | 141.77029 | 33984 ft | 474 kts | 317° |
| 2026-05-04 00:33 | 16.85779 | 141.70181 | 33985 ft | 475 kts | 317° |
| 2026-05-04 00:34 | 16.90828 | 141.65604 | 33986 ft | 475 kts | 317° |
| 2026-05-04 00:34 | 16.95879 | 141.61023 | 33986 ft | 475 kts | 317° |
| 2026-05-04 00:35 | 17.00892 | 141.56473 | 33987 ft | 475 kts | 317° |
| 2026-05-04 00:35 | 17.05913 | 141.51910 | 33986 ft | 475 kts | 317° |
| 2026-05-04 00:36 | 17.10964 | 141.47319 | 33988 ft | 474 kts | 317° |
| 2026-05-04 00:36 | 17.15947 | 141.42786 | 33989 ft | 475 kts | 317° |
| 2026-05-04 00:37 | 17.20958 | 141.38223 | 33989 ft | 475 kts | 317° |
| 2026-05-04 00:37 | 17.25959 | 141.33667 | 33997 ft | 475 kts | 316° |
| 2026-05-04 00:38 | 17.30914 | 141.29149 | 33997 ft | 474 kts | 316° |
| 2026-05-04 00:38 | 17.35895 | 141.24603 | 33996 ft | 474 kts | 316° |
| 2026-05-04 00:39 | 17.40877 | 141.20053 | 33997 ft | 473 kts | 316° |
| 2026-05-04 00:39 | 17.45870 | 141.15491 | 34001 ft | 474 kts | 316° |
| 2026-05-04 00:40 | 17.50834 | 141.10951 | 34004 ft | 474 kts | 316° |
| 2026-05-04 00:40 | 17.55796 | 141.06409 | 34005 ft | 474 kts | 316° |
| 2026-05-04 00:41 | 17.60798 | 141.01828 | 34004 ft | 473 kts | 316° |
| 2026-05-04 00:41 | 17.65745 | 140.97293 | 34005 ft | 473 kts | 316° |
| 2026-05-04 00:42 | 17.70695 | 140.92752 | 34005 ft | 472 kts | 316° |
| 2026-05-04 00:42 | 17.75663 | 140.88191 | 34006 ft | 472 kts | 316° |
| 2026-05-04 00:43 | 17.80614 | 140.83643 | 34004 ft | 473 kts | 316° |
| 2026-05-04 00:43 | 17.85585 | 140.79073 | 34004 ft | 473 kts | 316° |
| 2026-05-04 00:44 | 17.90534 | 140.74518 | 34001 ft | 473 kts | 316° |
| 2026-05-04 00:44 | 17.95503 | 140.69942 | 34003 ft | 472 kts | 316° |
| 2026-05-04 00:45 | 18.00444 | 140.65389 | 34002 ft | 470 kts | 317° |
| 2026-05-04 00:45 | 18.05372 | 140.60843 | 34001 ft | 473 kts | 317° |
| 2026-05-04 00:46 | 18.10338 | 140.56259 | 33998 ft | 473 kts | 317° |
| 2026-05-04 00:46 | 18.15301 | 140.51675 | 34001 ft | 473 kts | 317° |
| 2026-05-04 00:47 | 18.20246 | 140.47104 | 33999 ft | 474 kts | 317° |
| 2026-05-04 00:47 | 18.25225 | 140.42497 | 34000 ft | 474 kts | 317° |
| 2026-05-04 00:48 | 18.30173 | 140.37915 | 34002 ft | 475 kts | 317° |
| 2026-05-04 00:48 | 18.35154 | 140.33299 | 34013 ft | 475 kts | 316° |
| 2026-05-04 00:49 | 18.40108 | 140.28705 | 34016 ft | 475 kts | 316° |
| 2026-05-04 00:49 | 18.45098 | 140.24074 | 34015 ft | 475 kts | 316° |
| 2026-05-04 00:50 | 18.50058 | 140.19466 | 34015 ft | 476 kts | 316° |
| 2026-05-04 00:50 | 18.55004 | 140.14868 | 34015 ft | 475 kts | 316° |
| 2026-05-04 00:51 | 18.59995 | 140.10225 | 34015 ft | 476 kts | 317° |
| 2026-05-04 00:51 | 18.65008 | 140.05557 | 34013 ft | 476 kts | 317° |
| 2026-05-04 00:52 | 18.69986 | 140.00917 | 34012 ft | 478 kts | 317° |
| 2026-05-04 00:52 | 18.75008 | 139.96233 | 34012 ft | 478 kts | 317° |
| 2026-05-04 00:53 | 18.80007 | 139.91568 | 34015 ft | 478 kts | 317° |
| 2026-05-04 00:53 | 18.85000 | 139.86903 | 34013 ft | 476 kts | 317° |
| 2026-05-04 00:54 | 18.90007 | 139.82222 | 34011 ft | 477 kts | 317° |
| 2026-05-04 00:54 | 18.94990 | 139.77557 | 34012 ft | 479 kts | 317° |
| 2026-05-04 00:55 | 19.00015 | 139.72852 | 34012 ft | 480 kts | 317° |
| 2026-05-04 00:55 | 19.05016 | 139.68164 | 34011 ft | 479 kts | 317° |
| 2026-05-04 00:56 | 19.10056 | 139.63435 | 34017 ft | 480 kts | 317° |
| 2026-05-04 00:56 | 19.15053 | 139.58743 | 34015 ft | 479 kts | 317° |
| 2026-05-04 00:57 | 19.20029 | 139.54068 | 34016 ft | 480 kts | 317° |
| 2026-05-04 00:57 | 19.25030 | 139.49364 | 34015 ft | 480 kts | 317° |
| 2026-05-04 00:58 | 19.30063 | 139.44627 | 34016 ft | 480 kts | 317° |
| 2026-05-04 00:58 | 19.35083 | 139.39897 | 34018 ft | 481 kts | 317° |
| 2026-05-04 00:59 | 19.40106 | 139.35161 | 34020 ft | 481 kts | 317° |
| 2026-05-04 00:59 | 19.45091 | 139.30456 | 34023 ft | 480 kts | 317° |
| 2026-05-04 01:00 | 19.50080 | 139.25745 | 34025 ft | 480 kts | 317° |
| 2026-05-04 01:00 | 19.55097 | 139.21001 | 34027 ft | 481 kts | 317° |
| 2026-05-04 01:01 | 19.60134 | 139.16235 | 34027 ft | 480 kts | 317° |
| 2026-05-04 01:01 | 19.65179 | 139.11456 | 34026 ft | 480 kts | 317° |
| 2026-05-04 01:02 | 19.70190 | 139.06708 | 34030 ft | 481 kts | 317° |
| 2026-05-04 01:02 | 19.75214 | 139.01941 | 34031 ft | 483 kts | 317° |
| 2026-05-04 01:03 | 19.80278 | 138.97133 | 34028 ft | 481 kts | 317° |
| 2026-05-04 01:03 | 19.85282 | 138.92378 | 34029 ft | 482 kts | 317° |
| 2026-05-04 01:04 | 19.90323 | 138.87582 | 34033 ft | 482 kts | 317° |
| 2026-05-04 01:04 | 19.95360 | 138.82787 | 34033 ft | 480 kts | 316° |
| 2026-05-04 01:05 | 20.00374 | 138.78009 | 34034 ft | 481 kts | 317° |
| 2026-05-04 01:05 | 20.05358 | 138.73256 | 34032 ft | 482 kts | 317° |
| 2026-05-04 01:06 | 20.10374 | 138.68468 | 34032 ft | 482 kts | 317° |
| 2026-05-04 01:06 | 20.15397 | 138.63667 | 34030 ft | 482 kts | 317° |
| 2026-05-04 01:07 | 20.20372 | 138.58910 | 34037 ft | 482 kts | 317° |
| 2026-05-04 01:07 | 20.25394 | 138.54103 | 34034 ft | 482 kts | 317° |
| 2026-05-04 01:08 | 20.30409 | 138.49298 | 34035 ft | 482 kts | 317° |
| 2026-05-04 01:08 | 20.35432 | 138.44481 | 34033 ft | 482 kts | 317° |
| 2026-05-04 01:09 | 20.40432 | 138.39682 | 34032 ft | 482 kts | 317° |
| 2026-05-04 01:09 | 20.45462 | 138.34850 | 34034 ft | 481 kts | 316° |
| 2026-05-04 01:10 | 20.50458 | 138.30046 | 34037 ft | 482 kts | 316° |
| 2026-05-04 01:10 | 20.55444 | 138.25247 | 34037 ft | 481 kts | 316° |
| 2026-05-04 01:11 | 20.60421 | 138.20453 | 34036 ft | 481 kts | 316° |
| 2026-05-04 01:11 | 20.65448 | 138.15605 | 34035 ft | 482 kts | 316° |
| 2026-05-04 01:12 | 20.70457 | 138.10771 | 34035 ft | 482 kts | 316° |
| 2026-05-04 01:12 | 20.75503 | 138.05896 | 34035 ft | 482 kts | 316° |
| 2026-05-04 01:13 | 20.80502 | 138.01064 | 34032 ft | 482 kts | 316° |
| 2026-05-04 01:13 | 20.85512 | 137.96214 | 34031 ft | 481 kts | 316° |
| 2026-05-04 01:14 | 20.90494 | 137.91388 | 34028 ft | 481 kts | 316° |
| 2026-05-04 01:14 | 20.95509 | 137.86525 | 34027 ft | 481 kts | 316° |
| 2026-05-04 01:15 | 21.00652 | 137.81828 | 34032 ft | 484 kts | 324° |
| 2026-05-04 01:15 | 21.06451 | 137.78189 | 34033 ft | 485 kts | 329° |
| 2026-05-04 01:16 | 21.12350 | 137.74637 | 34037 ft | 484 kts | 329° |
| 2026-05-04 01:16 | 21.18202 | 137.71097 | 34037 ft | 484 kts | 329° |
| 2026-05-04 01:17 | 21.24109 | 137.67514 | 34037 ft | 483 kts | 329° |
| 2026-05-04 01:17 | 21.29959 | 137.63957 | 34041 ft | 485 kts | 329° |
| 2026-05-04 01:18 | 21.35876 | 137.60355 | 34042 ft | 483 kts | 329° |
| 2026-05-04 01:18 | 21.41785 | 137.56751 | 34042 ft | 485 kts | 329° |
| 2026-05-04 01:19 | 21.47677 | 137.53154 | 34043 ft | 485 kts | 329° |
| 2026-05-04 01:19 | 21.53598 | 137.49536 | 34047 ft | 484 kts | 329° |
| 2026-05-04 01:20 | 21.59518 | 137.45915 | 34046 ft | 484 kts | 329° |
| 2026-05-04 01:20 | 21.65432 | 137.42296 | 34041 ft | 484 kts | 328° |
| 2026-05-04 01:21 | 21.71351 | 137.38669 | 34043 ft | 485 kts | 329° |
| 2026-05-04 01:21 | 21.77191 | 137.35086 | 34045 ft | 484 kts | 329° |
| 2026-05-04 01:22 | 21.83083 | 137.31468 | 34052 ft | 484 kts | 328° |
| 2026-05-04 01:22 | 21.88939 | 137.27869 | 34052 ft | 484 kts | 328° |
| 2026-05-04 01:23 | 21.94765 | 137.24286 | 34055 ft | 484 kts | 328° |
| 2026-05-04 01:23 | 22.00672 | 137.20648 | 34055 ft | 485 kts | 328° |
| 2026-05-04 01:24 | 22.06576 | 137.17009 | 34055 ft | 485 kts | 328° |
| 2026-05-04 01:24 | 22.12445 | 137.13388 | 34056 ft | 485 kts | 328° |
| 2026-05-04 01:25 | 22.18307 | 137.09769 | 34056 ft | 485 kts | 328° |
| 2026-05-04 01:25 | 22.24173 | 137.06142 | 34055 ft | 484 kts | 328° |
| 2026-05-04 01:26 | 22.30031 | 137.02518 | 34055 ft | 485 kts | 328° |
| 2026-05-04 01:26 | 22.35890 | 136.98889 | 34055 ft | 485 kts | 328° |
| 2026-05-04 01:27 | 22.41767 | 136.95245 | 34054 ft | 486 kts | 328° |
| 2026-05-04 01:27 | 22.47665 | 136.91585 | 34054 ft | 486 kts | 328° |
| 2026-05-04 01:28 | 22.53543 | 136.87933 | 34049 ft | 486 kts | 328° |
| 2026-05-04 01:28 | 22.59387 | 136.84300 | 34047 ft | 486 kts | 328° |
| 2026-05-04 01:29 | 22.65285 | 136.80629 | 34042 ft | 486 kts | 328° |
| 2026-05-04 01:29 | 22.71149 | 136.76976 | 34043 ft | 486 kts | 328° |
| 2026-05-04 01:30 | 22.77022 | 136.73312 | 34043 ft | 486 kts | 328° |
| 2026-05-04 01:30 | 22.82898 | 136.69644 | 34044 ft | 486 kts | 328° |
| 2026-05-04 01:31 | 22.88802 | 136.65955 | 34043 ft | 485 kts | 328° |
| 2026-05-04 01:31 | 22.94670 | 136.62285 | 34043 ft | 485 kts | 327° |
| 2026-05-04 01:32 | 23.00547 | 136.58604 | 34042 ft | 486 kts | 327° |
| 2026-05-04 01:32 | 23.06398 | 136.54936 | 34042 ft | 486 kts | 327° |
| 2026-05-04 01:33 | 23.12255 | 136.51262 | 34041 ft | 486 kts | 327° |
| 2026-05-04 01:33 | 23.18152 | 136.47557 | 34040 ft | 486 kts | 327° |
| 2026-05-04 01:34 | 23.24028 | 136.43863 | 34038 ft | 486 kts | 327° |
| 2026-05-04 01:34 | 23.29879 | 136.40181 | 34039 ft | 486 kts | 327° |
| 2026-05-04 01:35 | 23.35749 | 136.36482 | 34035 ft | 486 kts | 327° |
| 2026-05-04 01:35 | 23.41605 | 136.32788 | 34038 ft | 487 kts | 327° |
| 2026-05-04 01:36 | 23.47496 | 136.29069 | 34037 ft | 486 kts | 327° |
| 2026-05-04 01:36 | 23.53347 | 136.25372 | 34036 ft | 486 kts | 327° |
| 2026-05-04 01:37 | 23.59183 | 136.21680 | 34035 ft | 486 kts | 327° |
| 2026-05-04 01:37 | 23.65049 | 136.17964 | 34035 ft | 486 kts | 327° |
| 2026-05-04 01:38 | 23.70909 | 136.14250 | 34034 ft | 487 kts | 326° |
| 2026-05-04 01:38 | 23.76810 | 136.10504 | 34035 ft | 487 kts | 327° |
| 2026-05-04 01:39 | 23.82682 | 136.06773 | 34035 ft | 487 kts | 326° |
| 2026-05-04 01:39 | 23.88547 | 136.03044 | 34034 ft | 487 kts | 326° |
| 2026-05-04 01:40 | 23.94380 | 135.99330 | 34034 ft | 486 kts | 326° |
| 2026-05-04 01:40 | 24.00240 | 135.95596 | 34034 ft | 487 kts | 326° |
| 2026-05-04 01:41 | 24.06117 | 135.91846 | 34034 ft | 486 kts | 326° |
| 2026-05-04 01:41 | 24.11956 | 135.88117 | 34033 ft | 487 kts | 326° |
| 2026-05-04 01:42 | 24.17801 | 135.84380 | 34032 ft | 486 kts | 326° |
| 2026-05-04 01:42 | 24.23696 | 135.80606 | 34032 ft | 486 kts | 326° |
| 2026-05-04 01:43 | 24.29553 | 135.76852 | 34032 ft | 487 kts | 326° |
| 2026-05-04 01:43 | 24.35405 | 135.73099 | 34031 ft | 487 kts | 326° |
| 2026-05-04 01:44 | 24.41242 | 135.69351 | 34031 ft | 487 kts | 326° |
| 2026-05-04 01:44 | 24.47134 | 135.65564 | 34031 ft | 488 kts | 327° |
| 2026-05-04 01:45 | 24.52989 | 135.61795 | 34030 ft | 486 kts | 326° |
| 2026-05-04 01:45 | 24.61748 | 135.56151 | 34030 ft | 486 kts | 327° |
| 2026-05-04 01:46 | 24.67601 | 135.52374 | 34030 ft | 487 kts | 327° |
| 2026-05-04 01:46 | 24.73438 | 135.48604 | 34030 ft | 486 kts | 327° |
| 2026-05-04 01:47 | 24.79301 | 135.44810 | 34030 ft | 487 kts | 327° |
| 2026-05-04 01:47 | 24.85169 | 135.41013 | 34029 ft | 487 kts | 327° |
| 2026-05-04 01:48 | 24.91052 | 135.37199 | 34030 ft | 487 kts | 327° |
| 2026-05-04 01:48 | 24.96875 | 135.33420 | 34037 ft | 486 kts | 326° |
| 2026-05-04 01:49 | 25.02710 | 135.29629 | 34034 ft | 486 kts | 326° |
| 2026-05-04 01:49 | 25.08548 | 135.25833 | 34035 ft | 486 kts | 326° |
| 2026-05-04 01:50 | 25.14382 | 135.22035 | 34036 ft | 486 kts | 326° |
| 2026-05-04 01:50 | 25.20227 | 135.18225 | 34034 ft | 485 kts | 326° |
| 2026-05-04 01:51 | 25.26033 | 135.14436 | 34031 ft | 486 kts | 326° |
| 2026-05-04 01:51 | 25.31915 | 135.10594 | 34028 ft | 486 kts | 326° |
| 2026-05-04 01:52 | 25.37787 | 135.06753 | 34030 ft | 486 kts | 326° |
| 2026-05-04 01:52 | 25.43649 | 135.02914 | 34025 ft | 486 kts | 326° |
| 2026-05-04 01:53 | 25.49498 | 134.99081 | 34029 ft | 487 kts | 326° |
| 2026-05-04 01:53 | 25.55171 | 134.94930 | 34023 ft | 485 kts | 322° |
| 2026-05-04 01:54 | 25.60715 | 134.90671 | 34019 ft | 485 kts | 322° |
| 2026-05-04 01:54 | 25.66343 | 134.86366 | 34020 ft | 485 kts | 322° |
| 2026-05-04 01:55 | 25.71975 | 134.82068 | 34018 ft | 486 kts | 322° |
| 2026-05-04 01:55 | 25.77530 | 134.77832 | 34015 ft | 486 kts | 322° |
| 2026-05-04 01:56 | 25.83168 | 134.73531 | 34014 ft | 485 kts | 322° |
| 2026-05-04 01:56 | 25.88844 | 134.69199 | 34013 ft | 486 kts | 322° |
| 2026-05-04 01:57 | 25.94482 | 134.64891 | 34014 ft | 486 kts | 322° |
| 2026-05-04 01:57 | 26.00100 | 134.60594 | 34014 ft | 486 kts | 322° |
| 2026-05-04 01:58 | 26.05779 | 134.56245 | 34011 ft | 487 kts | 322° |
| 2026-05-04 01:58 | 26.11396 | 134.51939 | 34009 ft | 487 kts | 322° |
| 2026-05-04 01:59 | 26.16951 | 134.47676 | 34008 ft | 486 kts | 322° |
| 2026-05-04 01:59 | 26.22556 | 134.43370 | 34009 ft | 486 kts | 322° |
| 2026-05-04 02:00 | 26.28123 | 134.39087 | 34009 ft | 486 kts | 322° |
| 2026-05-04 02:00 | 26.33729 | 134.34769 | 34010 ft | 491 kts | 322° |
| 2026-05-04 02:01 | 26.36570 | 134.32577 | 34438 ft | 493 kts | 321° |
| 2026-05-04 02:01 | 26.39326 | 134.30455 | 35415 ft | 484 kts | 321° |
| 2026-05-04 02:01 | 26.42123 | 134.28296 | 35987 ft | 482 kts | 321° |
| 2026-05-04 02:01 | 26.44846 | 134.26193 | 36018 ft | 479 kts | 321° |
| 2026-05-04 02:02 | 26.50321 | 134.21962 | 36018 ft | 474 kts | 321° |
| 2026-05-04 02:02 | 26.55778 | 134.17738 | 36016 ft | 475 kts | 321° |
| 2026-05-04 02:03 | 26.61234 | 134.13512 | 36015 ft | 475 kts | 321° |
| 2026-05-04 02:03 | 26.66684 | 134.09283 | 36015 ft | 475 kts | 321° |
| 2026-05-04 02:04 | 26.72108 | 134.05070 | 36016 ft | 475 kts | 321° |
| 2026-05-04 02:04 | 26.77567 | 134.00825 | 36015 ft | 475 kts | 321° |
| 2026-05-04 02:05 | 26.82982 | 133.96608 | 36013 ft | 474 kts | 321° |
| 2026-05-04 02:05 | 26.88447 | 133.92346 | 36016 ft | 474 kts | 321° |
| 2026-05-04 02:06 | 26.93891 | 133.88097 | 36014 ft | 474 kts | 321° |
| 2026-05-04 02:06 | 26.99341 | 133.83836 | 36016 ft | 473 kts | 321° |
| 2026-05-04 02:07 | 27.04789 | 133.79573 | 36018 ft | 474 kts | 321° |
| 2026-05-04 02:07 | 27.10250 | 133.75295 | 36014 ft | 474 kts | 321° |
| 2026-05-04 02:08 | 27.15663 | 133.71048 | 36015 ft | 475 kts | 321° |
| 2026-05-04 02:08 | 27.21104 | 133.66775 | 36014 ft | 475 kts | 321° |
| 2026-05-04 02:09 | 27.26514 | 133.62521 | 36014 ft | 474 kts | 321° |
| 2026-05-04 02:09 | 27.31936 | 133.58252 | 36018 ft | 475 kts | 320° |
| 2026-05-04 02:10 | 27.37384 | 133.53958 | 36017 ft | 476 kts | 320° |
| 2026-05-04 02:10 | 27.42848 | 133.49646 | 36017 ft | 473 kts | 320° |
| 2026-05-04 02:11 | 27.48261 | 133.45367 | 36017 ft | 473 kts | 320° |
| 2026-05-04 02:11 | 27.53693 | 133.41071 | 36018 ft | 475 kts | 320° |
| 2026-05-04 02:12 | 27.59104 | 133.36784 | 36022 ft | 474 kts | 320° |
| 2026-05-04 02:12 | 27.64521 | 133.32487 | 36031 ft | 473 kts | 319° |
| 2026-05-04 02:13 | 27.69900 | 133.28217 | 36036 ft | 473 kts | 319° |
| 2026-05-04 02:13 | 27.75305 | 133.23920 | 36033 ft | 473 kts | 319° |
| 2026-05-04 02:14 | 27.80663 | 133.19653 | 36022 ft | 472 kts | 319° |
| 2026-05-04 02:14 | 27.86112 | 133.15311 | 36024 ft | 474 kts | 319° |
| 2026-05-04 02:15 | 27.91553 | 133.10974 | 36018 ft | 472 kts | 319° |
| 2026-05-04 02:15 | 27.97025 | 133.06616 | 36016 ft | 470 kts | 319° |
| 2026-05-04 02:16 | 28.02393 | 133.02333 | 36018 ft | 473 kts | 319° |
| 2026-05-04 02:16 | 28.07822 | 132.97996 | 36016 ft | 471 kts | 319° |
| 2026-05-04 02:17 | 28.13189 | 132.93704 | 36011 ft | 470 kts | 319° |
| 2026-05-04 02:17 | 28.18553 | 132.89409 | 36012 ft | 471 kts | 318° |
| 2026-05-04 02:18 | 28.23886 | 132.85132 | 36012 ft | 469 kts | 318° |
| 2026-05-04 02:18 | 28.29240 | 132.80832 | 36012 ft | 472 kts | 318° |
| 2026-05-04 02:19 | 28.34633 | 132.76497 | 36010 ft | 472 kts | 318° |
| 2026-05-04 02:19 | 28.39976 | 132.72195 | 36010 ft | 470 kts | 318° |
| 2026-05-04 02:20 | 28.45363 | 132.67848 | 36010 ft | 468 kts | 318° |
| 2026-05-04 02:20 | 28.50721 | 132.63516 | 36015 ft | 472 kts | 317° |
| 2026-05-04 02:21 | 28.56132 | 132.59139 | 36016 ft | 469 kts | 317° |
| 2026-05-04 02:21 | 28.61507 | 132.54785 | 36016 ft | 470 kts | 317° |
| 2026-05-04 02:22 | 28.66855 | 132.50447 | 36014 ft | 470 kts | 317° |
| 2026-05-04 02:22 | 28.72194 | 132.46111 | 36012 ft | 468 kts | 317° |
| 2026-05-04 02:23 | 28.77572 | 132.41736 | 36015 ft | 472 kts | 317° |
| 2026-05-04 02:23 | 28.82953 | 132.37357 | 36007 ft | 470 kts | 317° |
| 2026-05-04 02:24 | 28.88292 | 132.33003 | 36028 ft | 467 kts | 316° |
| 2026-05-04 02:24 | 28.93632 | 132.28642 | 36024 ft | 469 kts | 316° |
| 2026-05-04 02:25 | 28.98914 | 132.24326 | 36022 ft | 469 kts | 316° |
| 2026-05-04 02:25 | 29.04222 | 132.19981 | 36022 ft | 465 kts | 316° |
| 2026-05-04 02:26 | 29.09520 | 132.15637 | 36019 ft | 467 kts | 316° |
| 2026-05-04 02:26 | 29.14805 | 132.11301 | 36013 ft | 467 kts | 316° |
| 2026-05-04 02:27 | 29.20144 | 132.06912 | 36012 ft | 470 kts | 316° |
| 2026-05-04 02:27 | 29.25432 | 132.02563 | 36012 ft | 469 kts | 316° |
| 2026-05-04 02:28 | 29.30724 | 131.98204 | 36011 ft | 468 kts | 316° |
| 2026-05-04 02:28 | 29.36005 | 131.93848 | 36015 ft | 466 kts | 315° |
| 2026-05-04 02:29 | 29.41344 | 131.89430 | 36014 ft | 476 kts | 316° |
| 2026-05-04 02:29 | 29.46724 | 131.84981 | 36011 ft | 473 kts | 315° |
| 2026-05-04 02:30 | 29.52097 | 131.80525 | 36014 ft | 475 kts | 315° |
| 2026-05-04 02:30 | 29.57421 | 131.76106 | 36011 ft | 474 kts | 315° |
| 2026-05-04 02:31 | 29.62932 | 131.71785 | 36010 ft | 478 kts | 319° |
| 2026-05-04 02:31 | 29.68556 | 131.67677 | 36006 ft | 477 kts | 318° |
| 2026-05-04 02:32 | 29.74182 | 131.63539 | 36012 ft | 477 kts | 319° |
| 2026-05-04 02:32 | 29.79756 | 131.59421 | 36009 ft | 478 kts | 318° |
| 2026-05-04 02:33 | 29.85390 | 131.55246 | 36011 ft | 479 kts | 318° |
| 2026-05-04 02:33 | 29.90993 | 131.51085 | 36000 ft | 480 kts | 318° |
| 2026-05-04 02:34 | 29.96563 | 131.46925 | 35997 ft | 474 kts | 316° |
| 2026-05-04 02:34 | 30.01351 | 131.41850 | 35994 ft | 454 kts | 301° |
| 2026-05-04 02:35 | 30.04848 | 131.35892 | 35997 ft | 446 kts | 295° |
| 2026-05-04 02:35 | 30.08169 | 131.29808 | 36015 ft | 446 kts | 294° |
| 2026-05-04 02:36 | 30.11441 | 131.23804 | 36009 ft | 446 kts | 294° |
| 2026-05-04 02:36 | 30.14765 | 131.17690 | 36017 ft | 445 kts | 294° |
| 2026-05-04 02:37 | 30.18048 | 131.11646 | 36016 ft | 442 kts | 294° |
| 2026-05-04 02:37 | 30.21338 | 131.05574 | 36019 ft | 444 kts | 294° |
| 2026-05-04 02:38 | 30.24599 | 130.99547 | 36019 ft | 443 kts | 294° |
| 2026-05-04 02:38 | 30.27888 | 130.93460 | 36019 ft | 442 kts | 294° |
| 2026-05-04 02:39 | 30.31159 | 130.87396 | 36018 ft | 444 kts | 293° |
| 2026-05-04 02:39 | 30.34421 | 130.81342 | 36024 ft | 441 kts | 293° |
| 2026-05-04 02:40 | 30.37686 | 130.75270 | 36019 ft | 444 kts | 294° |
| 2026-05-04 02:40 | 30.40937 | 130.69217 | 36025 ft | 446 kts | 293° |
| 2026-05-04 02:41 | 30.44203 | 130.63129 | 36029 ft | 441 kts | 294° |
| 2026-05-04 02:41 | 30.47456 | 130.57051 | 36027 ft | 441 kts | 293° |
| 2026-05-04 02:42 | 30.50713 | 130.50958 | 36031 ft | 443 kts | 293° |
| 2026-05-04 02:42 | 30.53945 | 130.44907 | 36025 ft | 439 kts | 293° |
| 2026-05-04 02:43 | 30.57165 | 130.38863 | 36028 ft | 439 kts | 293° |
| 2026-05-04 02:43 | 30.60369 | 130.32838 | 36055 ft | 442 kts | 292° |
| 2026-05-04 02:44 | 30.63592 | 130.26773 | 36059 ft | 443 kts | 292° |
| 2026-05-04 02:44 | 30.66827 | 130.20677 | 36057 ft | 440 kts | 292° |
| 2026-05-04 02:45 | 30.70052 | 130.14589 | 36046 ft | 439 kts | 292° |
| 2026-05-04 02:45 | 30.73216 | 130.08611 | 36055 ft | 436 kts | 292° |
| 2026-05-04 02:46 | 30.76417 | 130.02544 | 36044 ft | 438 kts | 292° |
| 2026-05-04 02:46 | 30.79601 | 129.96503 | 36061 ft | 441 kts | 292° |
| 2026-05-04 02:47 | 30.82812 | 129.90404 | 36062 ft | 441 kts | 291° |
| 2026-05-04 02:47 | 30.85989 | 129.84364 | 36058 ft | 436 kts | 291° |
| 2026-05-04 02:48 | 30.89150 | 129.78337 | 36063 ft | 441 kts | 292° |
| 2026-05-04 02:48 | 30.92326 | 129.72282 | 36060 ft | 435 kts | 291° |
| 2026-05-04 02:49 | 30.95503 | 129.66202 | 36062 ft | 439 kts | 291° |
| 2026-05-04 02:49 | 30.98657 | 129.60170 | 36057 ft | 435 kts | 291° |
| 2026-05-04 02:50 | 31.01834 | 129.54073 | 36065 ft | 440 kts | 291° |
| 2026-05-04 02:50 | 31.04979 | 129.48038 | 36060 ft | 433 kts | 291° |
| 2026-05-04 02:51 | 31.08135 | 129.41962 | 36063 ft | 438 kts | 291° |
| 2026-05-04 02:51 | 31.11262 | 129.35945 | 36048 ft | 434 kts | 291° |
| 2026-05-04 02:52 | 31.14406 | 129.29877 | 36065 ft | 433 kts | 290° |
| 2026-05-04 02:52 | 31.17498 | 129.23904 | 36074 ft | 430 kts | 290° |
| 2026-05-04 02:53 | 31.20599 | 129.17903 | 36069 ft | 429 kts | 290° |
| 2026-05-04 02:53 | 31.23708 | 129.11874 | 36073 ft | 430 kts | 290° |
| 2026-05-04 02:54 | 31.26790 | 129.05890 | 36070 ft | 428 kts | 290° |
| 2026-05-04 02:54 | 31.29866 | 128.99911 | 36073 ft | 426 kts | 290° |
| 2026-05-04 02:55 | 31.34458 | 128.90958 | 36077 ft | 431 kts | 290° |
| 2026-05-04 02:56 | 31.37535 | 128.84956 | 36066 ft | 427 kts | 290° |
| 2026-05-04 02:56 | 31.40589 | 128.78983 | 36072 ft | 430 kts | 290° |
| 2026-05-04 02:57 | 31.43652 | 128.72987 | 36073 ft | 427 kts | 290° |
| 2026-05-04 02:57 | 31.46701 | 128.67007 | 36075 ft | 430 kts | 290° |
| 2026-05-04 02:58 | 31.49736 | 128.61050 | 36065 ft | 422 kts | 290° |
| 2026-05-04 02:58 | 31.52778 | 128.55060 | 36066 ft | 427 kts | 290° |
| 2026-05-04 02:59 | 31.55815 | 128.49078 | 36069 ft | 427 kts | 289° |
| 2026-05-04 02:59 | 31.58832 | 128.43126 | 36064 ft | 424 kts | 289° |
| 2026-05-04 03:00 | 31.61858 | 128.37143 | 36067 ft | 427 kts | 290° |
| 2026-05-04 03:00 | 31.64880 | 128.31160 | 36090 ft | 425 kts | 289° |
| 2026-05-04 03:01 | 31.67867 | 128.25244 | 36085 ft | 420 kts | 288° |
| 2026-05-04 03:01 | 31.70872 | 128.19267 | 36088 ft | 423 kts | 289° |
| 2026-05-04 03:02 | 31.73852 | 128.13341 | 36084 ft | 424 kts | 289° |
| 2026-05-04 03:02 | 31.76836 | 128.07399 | 36101 ft | 422 kts | 289° |
| 2026-05-04 03:03 | 31.79798 | 128.01488 | 36110 ft | 422 kts | 289° |
| 2026-05-04 03:03 | 31.82764 | 127.95565 | 36106 ft | 419 kts | 289° |
| 2026-05-04 03:04 | 31.85718 | 127.89650 | 36096 ft | 418 kts | 288° |
| 2026-05-04 03:04 | 31.88675 | 127.83719 | 36100 ft | 421 kts | 289° |
| 2026-05-04 03:05 | 31.91600 | 127.77854 | 36101 ft | 416 kts | 288° |
| 2026-05-04 03:05 | 31.94546 | 127.71924 | 36107 ft | 419 kts | 288° |
| 2026-05-04 03:06 | 31.97484 | 127.66007 | 36098 ft | 417 kts | 289° |
| 2026-05-04 03:06 | 32.00415 | 127.60092 | 36101 ft | 418 kts | 289° |
| 2026-05-04 03:07 | 32.03344 | 127.54173 | 36101 ft | 420 kts | 289° |
| 2026-05-04 03:07 | 32.06278 | 127.48238 | 36101 ft | 419 kts | 288° |
| 2026-05-04 03:08 | 32.09209 | 127.42299 | 36102 ft | 416 kts | 289° |
| 2026-05-04 03:08 | 32.12106 | 127.36417 | 36080 ft | 417 kts | 289° |
| 2026-05-04 03:09 | 32.15038 | 127.30453 | 36107 ft | 415 kts | 288° |
| 2026-05-04 03:09 | 32.17928 | 127.24567 | 36105 ft | 417 kts | 288° |
| 2026-05-04 03:10 | 32.20848 | 127.18609 | 36103 ft | 414 kts | 288° |
| 2026-05-04 03:10 | 32.23718 | 127.12686 | 36101 ft | 410 kts | 286° |
| 2026-05-04 03:11 | 32.25697 | 127.06448 | 36104 ft | 398 kts | 275° |
| 2026-05-04 03:11 | 32.26352 | 127.00084 | 36098 ft | 384 kts | 264° |
| 2026-05-04 03:12 | 32.25774 | 126.93888 | 36108 ft | 378 kts | 255° |
| 2026-05-04 03:12 | 32.24475 | 126.87910 | 36102 ft | 377 kts | 253° |
| 2026-05-04 03:13 | 32.23151 | 126.81918 | 36101 ft | 376 kts | 253° |
| 2026-05-04 03:13 | 32.21822 | 126.75915 | 36100 ft | 379 kts | 253° |
| 2026-05-04 03:14 | 32.20486 | 126.69893 | 36097 ft | 377 kts | 253° |
| 2026-05-04 03:14 | 32.19161 | 126.63917 | 36097 ft | 377 kts | 253° |
| 2026-05-04 03:15 | 32.17861 | 126.57878 | 36097 ft | 379 kts | 253° |
| 2026-05-04 03:15 | 32.16550 | 126.51806 | 36094 ft | 379 kts | 253° |
| 2026-05-04 03:16 | 32.15249 | 126.45795 | 36093 ft | 380 kts | 253° |
| 2026-05-04 03:16 | 32.13940 | 126.39768 | 36093 ft | 378 kts | 253° |
| 2026-05-04 03:17 | 32.12633 | 126.33769 | 36111 ft | 381 kts | 253° |
| 2026-05-04 03:17 | 32.11308 | 126.27701 | 36114 ft | 380 kts | 253° |
| 2026-05-04 03:18 | 32.09990 | 126.21680 | 36113 ft | 381 kts | 253° |
| 2026-05-04 03:18 | 32.08664 | 126.15637 | 36115 ft | 381 kts | 253° |
| 2026-05-04 03:19 | 32.07341 | 126.09619 | 36105 ft | 380 kts | 253° |
| 2026-05-04 03:19 | 32.06005 | 126.03529 | 36108 ft | 381 kts | 253° |
| 2026-05-04 03:20 | 32.04712 | 125.97483 | 36106 ft | 381 kts | 254° |
| 2026-05-04 03:20 | 32.03412 | 125.91423 | 36107 ft | 381 kts | 253° |
| 2026-05-04 03:21 | 32.02102 | 125.85340 | 36112 ft | 382 kts | 253° |
| 2026-05-04 03:21 | 32.00797 | 125.79293 | 36110 ft | 382 kts | 253° |
| 2026-05-04 03:22 | 31.99464 | 125.73231 | 36111 ft | 382 kts | 253° |
| 2026-05-04 03:22 | 31.98120 | 125.67179 | 36104 ft | 382 kts | 253° |
| 2026-05-04 03:23 | 31.96767 | 125.61098 | 36108 ft | 384 kts | 254° |
| 2026-05-04 03:23 | 31.95414 | 125.55029 | 36099 ft | 382 kts | 253° |
| 2026-05-04 03:24 | 31.94057 | 125.48957 | 36103 ft | 381 kts | 253° |
| 2026-05-04 03:24 | 31.92688 | 125.42842 | 36104 ft | 384 kts | 254° |
| 2026-05-04 03:25 | 31.91332 | 125.36804 | 36099 ft | 382 kts | 254° |
| 2026-05-04 03:25 | 31.89968 | 125.30742 | 36131 ft | 382 kts | 253° |
| 2026-05-04 03:26 | 31.88597 | 125.24664 | 36146 ft | 384 kts | 253° |
| 2026-05-04 03:26 | 31.87227 | 125.18607 | 36144 ft | 385 kts | 253° |
| 2026-05-04 03:27 | 31.85854 | 125.12545 | 36139 ft | 382 kts | 253° |
| 2026-05-04 03:27 | 31.84469 | 125.06450 | 36139 ft | 384 kts | 253° |
| 2026-05-04 03:28 | 31.83089 | 125.00388 | 36133 ft | 384 kts | 253° |
| 2026-05-04 03:28 | 31.81754 | 124.94274 | 36137 ft | 383 kts | 253° |
| 2026-05-04 03:29 | 31.80441 | 124.88183 | 36134 ft | 385 kts | 254° |
| 2026-05-04 03:29 | 31.79120 | 124.82079 | 36136 ft | 384 kts | 253° |
| 2026-05-04 03:30 | 31.77787 | 124.75942 | 36133 ft | 386 kts | 254° |
| 2026-05-04 03:30 | 31.76443 | 124.69774 | 35804 ft | 387 kts | 253° |
| 2026-05-04 03:30 | 31.75774 | 124.66710 | 35527 ft | 387 kts | 254° |
| 2026-05-04 03:31 | 31.75106 | 124.63655 | 35248 ft | 388 kts | 253° |
| 2026-05-04 03:31 | 31.74429 | 124.60564 | 34968 ft | 391 kts | 254° |
| 2026-05-04 03:31 | 31.73750 | 124.57466 | 34687 ft | 393 kts | 254° |
| 2026-05-04 03:31 | 31.73063 | 124.54336 | 34403 ft | 394 kts | 254° |
| 2026-05-04 03:32 | 31.72375 | 124.51203 | 34118 ft | 394 kts | 254° |
| 2026-05-04 03:32 | 31.71686 | 124.48070 | 33832 ft | 396 kts | 253° |
| 2026-05-04 03:32 | 31.70995 | 124.44937 | 33550 ft | 396 kts | 254° |
| 2026-05-04 03:32 | 31.70298 | 124.41775 | 33255 ft | 399 kts | 253° |
| 2026-05-04 03:33 | 31.69605 | 124.38637 | 32976 ft | 399 kts | 253° |
| 2026-05-04 03:33 | 31.68902 | 124.35461 | 32685 ft | 402 kts | 254° |
| 2026-05-04 03:33 | 31.68212 | 124.32344 | 32437 ft | 400 kts | 254° |
| 2026-05-04 03:33 | 31.67507 | 124.29162 | 32192 ft | 398 kts | 253° |
| 2026-05-04 03:34 | 31.66810 | 124.26025 | 31942 ft | 397 kts | 253° |
| 2026-05-04 03:34 | 31.66116 | 124.22899 | 31691 ft | 398 kts | 253° |
| 2026-05-04 03:34 | 31.65415 | 124.19750 | 31428 ft | 396 kts | 253° |
| 2026-05-04 03:34 | 31.64722 | 124.16637 | 31173 ft | 394 kts | 253° |
| 2026-05-04 03:35 | 31.64026 | 124.13518 | 30918 ft | 393 kts | 253° |
| 2026-05-04 03:35 | 31.63329 | 124.10399 | 30666 ft | 393 kts | 253° |
| 2026-05-04 03:35 | 31.62638 | 124.07307 | 30410 ft | 393 kts | 254° |
| 2026-05-04 03:35 | 31.61946 | 124.04220 | 30036 ft | 389 kts | 254° |
| 2026-05-04 03:36 | 31.61262 | 124.01163 | 29645 ft | 380 kts | 253° |
| 2026-05-04 03:36 | 31.60597 | 123.98175 | 29265 ft | 372 kts | 254° |
| 2026-05-04 03:36 | 31.59953 | 123.95219 | 28893 ft | 371 kts | 254° |
| 2026-05-04 03:36 | 31.59309 | 123.92262 | 28505 ft | 372 kts | 254° |
| 2026-05-04 03:37 | 31.58667 | 123.89321 | 28124 ft | 372 kts | 254° |
| 2026-05-04 03:37 | 31.58018 | 123.86350 | 27740 ft | 369 kts | 254° |
| 2026-05-04 03:37 | 31.57376 | 123.83421 | 27345 ft | 368 kts | 254° |
| 2026-05-04 03:37 | 31.56743 | 123.80531 | 26963 ft | 366 kts | 255° |
| 2026-05-04 03:38 | 31.56101 | 123.77607 | 26573 ft | 366 kts | 255° |
| 2026-05-04 03:38 | 31.55461 | 123.74699 | 26194 ft | 364 kts | 255° |
| 2026-05-04 03:38 | 31.54836 | 123.71858 | 25818 ft | 363 kts | 255° |
| 2026-05-04 03:38 | 31.54199 | 123.68971 | 25421 ft | 362 kts | 255° |
| 2026-05-04 03:39 | 31.53572 | 123.66127 | 25039 ft | 362 kts | 255° |
| 2026-05-04 03:39 | 31.52936 | 123.63246 | 24647 ft | 360 kts | 255° |
| 2026-05-04 03:39 | 31.52314 | 123.60435 | 24265 ft | 358 kts | 255° |
| 2026-05-04 03:39 | 31.51678 | 123.57561 | 23889 ft | 352 kts | 255° |
| 2026-05-04 03:40 | 31.51053 | 123.54744 | 23508 ft | 345 kts | 255° |
| 2026-05-04 03:40 | 31.50438 | 123.51973 | 23137 ft | 342 kts | 256° |
| 2026-05-04 03:40 | 31.49836 | 123.49255 | 22764 ft | 342 kts | 256° |
| 2026-05-04 03:40 | 31.49297 | 123.46450 | 22417 ft | 344 kts | 258° |
| 2026-05-04 03:41 | 31.48786 | 123.43667 | 22070 ft | 345 kts | 258° |
| 2026-05-04 03:41 | 31.48263 | 123.40865 | 21727 ft | 345 kts | 258° |
| 2026-05-04 03:41 | 31.47739 | 123.38079 | 21379 ft | 345 kts | 258° |
| 2026-05-04 03:41 | 31.47218 | 123.35331 | 21026 ft | 339 kts | 258° |
| 2026-05-04 03:42 | 31.46708 | 123.32640 | 20694 ft | 335 kts | 258° |
| 2026-05-04 03:42 | 31.46198 | 123.29962 | 20357 ft | 334 kts | 258° |
| 2026-05-04 03:42 | 31.45687 | 123.27280 | 20014 ft | 335 kts | 258° |
| 2026-05-04 03:42 | 31.45179 | 123.24621 | 19676 ft | 336 kts | 258° |
| 2026-05-04 03:43 | 31.44670 | 123.21956 | 19341 ft | 332 kts | 259° |
| 2026-05-04 03:43 | 31.44167 | 123.19331 | 18998 ft | 327 kts | 259° |
| 2026-05-04 03:43 | 31.43671 | 123.16745 | 18584 ft | 325 kts | 259° |
| 2026-05-04 03:43 | 31.43173 | 123.14144 | 18166 ft | 327 kts | 260° |
| 2026-05-04 03:44 | 31.42672 | 123.11532 | 17732 ft | 328 kts | 260° |
| 2026-05-04 03:44 | 31.42165 | 123.08897 | 17281 ft | 327 kts | 260° |
| 2026-05-04 03:44 | 31.41659 | 123.06268 | 16826 ft | 325 kts | 260° |
| 2026-05-04 03:44 | 31.41164 | 123.03700 | 16375 ft | 323 kts | 260° |
| 2026-05-04 03:45 | 31.40669 | 123.01137 | 15936 ft | 322 kts | 259° |
| 2026-05-04 03:45 | 31.40177 | 122.98587 | 15492 ft | 320 kts | 259° |
| 2026-05-04 03:45 | 31.39683 | 122.96033 | 15046 ft | 319 kts | 260° |
| 2026-05-04 03:45 | 31.39196 | 122.93516 | 14600 ft | 317 kts | 259° |
| 2026-05-04 03:46 | 31.38706 | 122.90988 | 14151 ft | 316 kts | 260° |
| 2026-05-04 03:46 | 31.38216 | 122.88461 | 13704 ft | 315 kts | 259° |
| 2026-05-04 03:46 | 31.37730 | 122.85957 | 13263 ft | 314 kts | 260° |
| 2026-05-04 03:46 | 31.37246 | 122.83470 | 12827 ft | 313 kts | 260° |
| 2026-05-04 03:47 | 31.36760 | 122.80975 | 12387 ft | 312 kts | 261° |
| 2026-05-04 03:47 | 31.36281 | 122.78516 | 11954 ft | 310 kts | 261° |
| 2026-05-04 03:47 | 31.35800 | 122.76022 | 11504 ft | 309 kts | 262° |
| 2026-05-04 03:47 | 31.35341 | 122.73556 | 11063 ft | 308 kts | 262° |
| 2026-05-04 03:48 | 31.34884 | 122.71094 | 10607 ft | 308 kts | 262° |
| 2026-05-04 03:48 | 31.34432 | 122.68670 | 10290 ft | 302 kts | 262° |
| 2026-05-04 03:48 | 31.33979 | 122.66257 | 10294 ft | 302 kts | 262° |
| 2026-05-04 03:48 | 31.33528 | 122.63846 | 10290 ft | 301 kts | 262° |
| 2026-05-04 03:49 | 31.33081 | 122.61465 | 10293 ft | 302 kts | 262° |
| 2026-05-04 03:49 | 31.32622 | 122.59020 | 10290 ft | 302 kts | 263° |
| 2026-05-04 03:49 | 31.32170 | 122.56622 | 10289 ft | 302 kts | 262° |
| 2026-05-04 03:49 | 31.31716 | 122.54210 | 10291 ft | 303 kts | 263° |
| 2026-05-04 03:50 | 31.31262 | 122.51804 | 10287 ft | 302 kts | 262° |
| 2026-05-04 03:50 | 31.30807 | 122.49394 | 10284 ft | 303 kts | 262° |
| 2026-05-04 03:50 | 31.30353 | 122.46989 | 10291 ft | 303 kts | 262° |
| 2026-05-04 03:50 | 31.29893 | 122.44558 | 10288 ft | 303 kts | 263° |
| 2026-05-04 03:51 | 31.29433 | 122.42133 | 10281 ft | 302 kts | 262° |
| 2026-05-04 03:51 | 31.28974 | 122.39710 | 10283 ft | 303 kts | 262° |
| 2026-05-04 03:51 | 31.28516 | 122.37299 | 10283 ft | 302 kts | 263° |
| 2026-05-04 03:51 | 31.28063 | 122.34895 | 10287 ft | 302 kts | 262° |
| 2026-05-04 03:52 | 31.27613 | 122.32501 | 10290 ft | 302 kts | 262° |
| 2026-05-04 03:52 | 31.27159 | 122.30087 | 10285 ft | 303 kts | 262° |
| 2026-05-04 03:52 | 31.26702 | 122.27664 | 10291 ft | 303 kts | 262° |
| 2026-05-04 03:52 | 31.26250 | 122.25272 | 10285 ft | 302 kts | 262° |
| 2026-05-04 03:53 | 31.25796 | 122.22875 | 10287 ft | 303 kts | 262° |
| 2026-05-04 03:53 | 31.25340 | 122.20463 | 10275 ft | 303 kts | 262° |
| 2026-05-04 03:53 | 31.24880 | 122.18053 | 10282 ft | 303 kts | 262° |
| 2026-05-04 03:53 | 31.24418 | 122.15658 | 10289 ft | 303 kts | 262° |
| 2026-05-04 03:54 | 31.23948 | 122.13227 | 10282 ft | 303 kts | 262° |
| 2026-05-04 03:54 | 31.23491 | 122.10859 | 10270 ft | 303 kts | 262° |
| 2026-05-04 03:54 | 31.23021 | 122.08422 | 10269 ft | 303 kts | 262° |
| 2026-05-04 03:54 | 31.22558 | 122.06030 | 10278 ft | 304 kts | 262° |
| 2026-05-04 03:55 | 31.22092 | 122.03631 | 10092 ft | 295 kts | 262° |
| 2026-05-04 03:55 | 31.21652 | 122.01369 | 10064 ft | 280 kts | 262° |
| 2026-05-04 03:55 | 31.21226 | 121.99185 | 10010 ft | 267 kts | 262° |
| 2026-05-04 03:55 | 31.20821 | 121.97089 | 9728 ft | 265 kts | 263° |
| 2026-05-04 03:56 | 31.20410 | 121.94963 | 9338 ft | 266 kts | 263° |
| 2026-05-04 03:56 | 31.20014 | 121.92873 | 8973 ft | 266 kts | 265° |
| 2026-05-04 03:56 | 31.20046 | 121.90767 | 8571 ft | 258 kts | 287° |
| 2026-05-04 03:56 | 31.20753 | 121.88851 | 8143 ft | 253 kts | 307° |
| 2026-05-04 03:57 | 31.21993 | 121.87405 | 7775 ft | 252 kts | 326° |
| 2026-05-04 03:57 | 31.23606 | 121.86591 | 7365 ft | 254 kts | 347° |
| 2026-05-04 03:57 | 31.25373 | 121.86683 | 6981 ft | 262 kts | 13° |
| 2026-05-04 03:57 | 31.27092 | 121.87500 | 6608 ft | 262 kts | 12° |
| 2026-05-04 03:58 | 31.30564 | 121.87077 | 5934 ft | 250 kts | 340° |
| 2026-05-04 03:58 | 31.32208 | 121.86439 | 5687 ft | 247 kts | 339° |
| 2026-05-04 03:58 | 31.33820 | 121.85817 | 5462 ft | 243 kts | 340° |
| 2026-05-04 03:59 | 31.35428 | 121.85203 | 5246 ft | 240 kts | 340° |
| 2026-05-04 03:59 | 31.37014 | 121.84598 | 5000 ft | 238 kts | 340° |
| 2026-05-04 03:59 | 31.38601 | 121.83994 | 4750 ft | 235 kts | 340° |
| 2026-05-04 03:59 | 31.40141 | 121.83408 | 4506 ft | 233 kts | 340° |
| 2026-05-04 04:00 | 31.41705 | 121.82812 | 4246 ft | 232 kts | 340° |
| 2026-05-04 04:00 | 31.43178 | 121.82076 | 3980 ft | 231 kts | 322° |
| 2026-05-04 04:00 | 31.44154 | 121.80580 | 3704 ft | 233 kts | 290° |
| 2026-05-04 04:00 | 31.44262 | 121.78699 | 3421 ft | 236 kts | 257° |
| 2026-05-04 04:01 | 31.43503 | 121.76981 | 3153 ft | 238 kts | 237° |
| 2026-05-04 04:01 | 31.42627 | 121.75348 | 2902 ft | 236 kts | 233° |
| 2026-05-04 04:01 | 31.41366 | 121.74226 | 2861 ft | 227 kts | 202° |
| 2026-05-04 04:01 | 31.39830 | 121.74031 | 2853 ft | 226 kts | 168° |
| 2026-05-04 04:02 | 31.38340 | 121.74904 | 2912 ft | 245 kts | 136° |
| 2026-05-04 04:02 | 31.37414 | 121.76562 | 2963 ft | 250 kts | 106° |
| 2026-05-04 04:02 | 31.37304 | 121.78566 | 2965 ft | 245 kts | 78° |
| 2026-05-04 04:02 | 31.37676 | 121.80519 | 2981 ft | 245 kts | 75° |
| 2026-05-04 04:03 | 31.38082 | 121.82456 | 2980 ft | 245 kts | 74° |
| 2026-05-04 04:03 | 31.38489 | 121.84395 | 2983 ft | 244 kts | 74° |
| 2026-05-04 04:03 | 31.38896 | 121.86343 | 2981 ft | 246 kts | 74° |
| 2026-05-04 04:03 | 31.39301 | 121.88288 | 2977 ft | 245 kts | 75° |
| 2026-05-04 04:04 | 31.39549 | 121.90261 | 2965 ft | 245 kts | 94° |
| 2026-05-04 04:04 | 31.38980 | 121.92162 | 2971 ft | 251 kts | 126° |
| 2026-05-04 04:04 | 31.37691 | 121.93472 | 2966 ft | 249 kts | 156° |
| 2026-05-04 04:04 | 31.36050 | 121.94104 | 2972 ft | 248 kts | 170° |
| 2026-05-04 04:05 | 31.34321 | 121.94452 | 2979 ft | 247 kts | 172° |
| 2026-05-04 04:05 | 31.32615 | 121.94770 | 2981 ft | 248 kts | 172° |
| 2026-05-04 04:05 | 31.30902 | 121.95088 | 2981 ft | 248 kts | 172° |
| 2026-05-04 04:05 | 31.29190 | 121.95405 | 2983 ft | 249 kts | 172° |
| 2026-05-04 04:06 | 31.27468 | 121.95715 | 2980 ft | 247 kts | 172° |
| 2026-05-04 04:06 | 31.25760 | 121.96025 | 2980 ft | 249 kts | 172° |
| 2026-05-04 04:06 | 31.24041 | 121.96339 | 2977 ft | 249 kts | 172° |
| 2026-05-04 04:06 | 31.22325 | 121.96652 | 2983 ft | 249 kts | 172° |
| 2026-05-04 04:07 | 31.20604 | 121.96963 | 2983 ft | 248 kts | 172° |
| 2026-05-04 04:07 | 31.18901 | 121.97279 | 2976 ft | 247 kts | 172° |
| 2026-05-04 04:07 | 31.17183 | 121.97599 | 2982 ft | 247 kts | 172° |
| 2026-05-04 04:07 | 31.15494 | 121.97916 | 2985 ft | 248 kts | 172° |
| 2026-05-04 04:08 | 31.13772 | 121.98241 | 2982 ft | 247 kts | 172° |
| 2026-05-04 04:08 | 31.12068 | 121.98565 | 2984 ft | 248 kts | 172° |
| 2026-05-04 04:08 | 31.10366 | 121.98894 | 2981 ft | 246 kts | 172° |
| 2026-05-04 04:08 | 31.08662 | 121.99218 | 2976 ft | 247 kts | 172° |
| 2026-05-04 04:09 | 31.06948 | 121.99544 | 2992 ft | 249 kts | 172° |
| 2026-05-04 04:09 | 31.05253 | 121.99869 | 2988 ft | 247 kts | 172° |
| 2026-05-04 04:09 | 31.03532 | 122.00149 | 2975 ft | 247 kts | 182° |
| 2026-05-04 04:09 | 31.01892 | 121.99709 | 2966 ft | 245 kts | 207° |
| 2026-05-04 04:10 | 31.00265 | 121.99052 | 2969 ft | 247 kts | 187° |
| 2026-05-04 04:10 | 30.98532 | 121.99206 | 2978 ft | 247 kts | 169° |
| 2026-05-04 04:10 | 30.96901 | 121.99715 | 2976 ft | 239 kts | 165° |
| 2026-05-04 04:10 | 30.95320 | 122.00300 | 2868 ft | 232 kts | 163° |
| 2026-05-04 04:11 | 30.93802 | 122.00876 | 2737 ft | 226 kts | 163° |
| 2026-05-04 04:11 | 30.92305 | 122.01444 | 2610 ft | 224 kts | 163° |
| 2026-05-04 04:11 | 30.90822 | 122.01920 | 2432 ft | 219 kts | 178° |
| 2026-05-04 04:11 | 30.89336 | 122.01754 | 2184 ft | 214 kts | 200° |
| 2026-05-04 04:12 | 30.88039 | 122.00951 | 1932 ft | 211 kts | 223° |
| 2026-05-04 04:12 | 30.87134 | 121.99667 | 1884 ft | 197 kts | 244° |
| 2026-05-04 04:12 | 30.86733 | 121.98183 | 1868 ft | 190 kts | 270° |
| 2026-05-04 04:12 | 30.87076 | 121.96727 | 1884 ft | 191 kts | 296° |
| 2026-05-04 04:13 | 30.87558 | 121.95286 | 1880 ft | 188 kts | 284° |
| 2026-05-04 04:13 | 30.88018 | 121.93886 | 1879 ft | 180 kts | 301° |
| 2026-05-04 04:13 | 30.88731 | 121.92786 | 1870 ft | 164 kts | 310° |
| 2026-05-04 04:13 | 30.89501 | 121.91844 | 1871 ft | 158 kts | 321° |
| 2026-05-04 04:14 | 30.90480 | 121.91193 | 1875 ft | 161 kts | 336° |
| 2026-05-04 04:14 | 30.91510 | 121.90754 | 1865 ft | 155 kts | 340° |
| 2026-05-04 04:14 | 30.92530 | 121.90374 | 1872 ft | 152 kts | 341° |
| 2026-05-04 04:14 | 30.93539 | 121.90009 | 1875 ft | 151 kts | 341° |
| 2026-05-04 04:15 | 30.94548 | 121.89641 | 1874 ft | 151 kts | 341° |
| 2026-05-04 04:15 | 30.95548 | 121.89273 | 1874 ft | 150 kts | 341° |
| 2026-05-04 04:15 | 30.96557 | 121.88899 | 1879 ft | 152 kts | 341° |
| 2026-05-04 04:15 | 30.97562 | 121.88526 | 1880 ft | 151 kts | 341° |
| 2026-05-04 04:16 | 30.98568 | 121.88151 | 1878 ft | 151 kts | 341° |
| 2026-05-04 04:16 | 30.99564 | 121.87779 | 1878 ft | 150 kts | 341° |
| 2026-05-04 04:16 | 31.00569 | 121.87402 | 1880 ft | 150 kts | 341° |
| 2026-05-04 04:16 | 31.01566 | 121.87029 | 1882 ft | 151 kts | 341° |
| 2026-05-04 04:17 | 31.02586 | 121.86649 | 1876 ft | 152 kts | 341° |
| 2026-05-04 04:17 | 31.03584 | 121.86275 | 1863 ft | 152 kts | 340° |
| 2026-05-04 04:17 | 31.04610 | 121.85891 | 1648 ft | 151 kts | 340° |
| 2026-05-04 04:17 | 31.05610 | 121.85517 | 1449 ft | 150 kts | 341° |
| 2026-05-04 04:18 | 31.06581 | 121.85153 | 1255 ft | 143 kts | 341° |
| 2026-05-04 04:18 | 31.07536 | 121.84796 | 1072 ft | 144 kts | 340° |
| 2026-05-04 04:18 | 31.08479 | 121.84442 | 891 ft | 141 kts | 341° |
| 2026-05-04 04:18 | 31.09424 | 121.84088 | 712 ft | 142 kts | 341° |
| 2026-05-04 04:19 | 31.10379 | 121.83731 | 524 ft | 144 kts | 341° |
| 2026-05-04 04:19 | 31.11332 | 121.83373 | 326 ft | 142 kts | 341° |
| 2026-05-04 04:19 | 31.12283 | 121.83017 | 155 ft | 143 kts | 341° |
| 2026-05-04 04:19 | 31.13233 | 121.82658 | 29 ft | 133 kts | 342° |
| 2026-05-04 04:20 | 31.13975 | 121.82391 | 28 ft | 88 kts | 343° |
| 2026-05-04 04:20 | 31.14419 | 121.82230 | 28 ft | 41 kts | 339° |
| 2026-05-04 04:20 | 31.14513 | 121.82189 | 27 ft | 7 kts | 339° |
| 2026-05-04 04:20 | 31.14564 | 121.82166 | 27 ft | 8 kts | 339° |
| 2026-05-04 04:21 | 31.14618 | 121.82143 | 27 ft | 8 kts | 339° |
| 2026-05-04 04:21 | 31.14664 | 121.82111 | 27 ft | 7 kts | 321° |
| 2026-05-04 04:21 | 31.14701 | 121.82066 | 28 ft | 7 kts | 312° |
| 2026-05-04 04:21 | 31.14738 | 121.82018 | 27 ft | 7 kts | 312° |
| 2026-05-04 04:22 | 31.14777 | 121.81973 | 27 ft | 8 kts | 315° |
| 2026-05-04 04:22 | 31.14817 | 121.81925 | 27 ft | 8 kts | 314° |
| 2026-05-04 04:22 | 31.14856 | 121.81877 | 27 ft | 8 kts | 314° |
| 2026-05-04 04:22 | 31.14899 | 121.81837 | 27 ft | 7 kts | 330° |
| 2026-05-04 04:23 | 31.14948 | 121.81805 | 27 ft | 8 kts | 330° |
| 2026-05-04 04:23 | 31.14979 | 121.81763 | 27 ft | 6 kts | 301° |
| 2026-05-04 04:23 | 31.14980 | 121.81724 | 27 ft | 5 kts | 250° |
| 2026-05-04 04:23 | 31.14962 | 121.81666 | 27 ft | 8 kts | 250° |
| 2026-05-04 04:24 | 31.14937 | 121.81589 | 27 ft | 11 kts | 250° |
| 2026-05-04 04:24 | 31.14907 | 121.81494 | 27 ft | 13 kts | 250° |
| 2026-05-04 04:24 | 31.14876 | 121.81384 | 27 ft | 14 kts | 252° |
| 2026-05-04 04:24 | 31.14845 | 121.81269 | 27 ft | 14 kts | 252° |
| 2026-05-04 04:25 | 31.14812 | 121.81154 | 27 ft | 14 kts | 251° |
| 2026-05-04 04:25 | 31.14798 | 121.81075 | 27 ft | 8 kts | 284° |
| 2026-05-04 04:25 | 31.14831 | 121.81036 | 27 ft | 6 kts | 330° |
| 2026-05-04 04:25 | 31.14849 | 121.81000 | 27 ft | 4 kts | 256° |
| 2026-05-04 04:26 | 31.14837 | 121.80962 | 27 ft | 5 kts | 252° |
| 2026-05-04 04:26 | 31.14832 | 121.80943 | 27 ft | 0 kts | 252° |
| 2026-05-04 04:26 | 31.14831 | 121.80939 | 27 ft | 1 kts | 252° |